<?xml version='1.0' encoding='UTF-8'?><gpx version="1.1" creator="JPX - https://github.com/jenetics/jpx" xmlns="http://www.topografix.com/GPX/1/1"><trk><trkseg><trkpt lat="43.7784325" lon="11.2009392"><ele>39.0</ele><time>2026-03-28T15:54:06.854Z</time></trkpt><trkpt lat="43.77841" lon="11.2010433"><ele>39.0</ele><time>2026-03-28T15:54:09.854Z</time></trkpt><trkpt lat="43.778385" lon="11.2011567"><ele>39.0</ele><time>2026-03-28T15:54:12.854Z</time></trkpt><trkpt lat="43.778365" lon="11.2012433"><ele>39.0</ele><time>2026-03-28T15:54:14.854Z</time></trkpt><trkpt lat="43.7783383" lon="11.201365"><ele>39.0</ele><time>2026-03-28T15:54:17.854Z</time></trkpt><trkpt lat="43.7783167" lon="11.20146"><ele>39.0</ele><time>2026-03-28T15:54:19.854Z</time></trkpt><trkpt lat="43.7782967" lon="11.201555"><ele>39.142857142857146</ele><time>2026-03-28T15:54:21.854Z</time></trkpt><trkpt lat="43.7782767" lon="11.2016417"><ele>39.285714285714285</ele><time>2026-03-28T15:54:23.853Z</time></trkpt><trkpt lat="43.7782567" lon="11.20173"><ele>39.42857142857143</ele><time>2026-03-28T15:54:25.854Z</time></trkpt><trkpt lat="43.7782367" lon="11.2018233"><ele>39.57142857142857</ele><time>2026-03-28T15:54:27.854Z</time></trkpt><trkpt lat="43.7782167" lon="11.20191"><ele>39.714285714285715</ele><time>2026-03-28T15:54:29.854Z</time></trkpt><trkpt lat="43.77819" lon="11.202035"><ele>39.857142857142854</ele><time>2026-03-28T15:54:32.854Z</time></trkpt><trkpt lat="43.77817" lon="11.2021233"><ele>40.0</ele><time>2026-03-28T15:54:34.854Z</time></trkpt><trkpt lat="43.77815" lon="11.20221"><ele>40.0</ele><time>2026-03-28T15:54:36.854Z</time></trkpt><trkpt lat="43.77813" lon="11.2022933"><ele>40.0</ele><time>2026-03-28T15:54:38.854Z</time></trkpt><trkpt lat="43.7781033" lon="11.2024067"><ele>40.0</ele><time>2026-03-28T15:54:41.854Z</time></trkpt><trkpt lat="43.7780833" lon="11.202495"><ele>40.0</ele><time>2026-03-28T15:54:43.854Z</time></trkpt><trkpt lat="43.7780567" lon="11.2026067"><ele>40.0</ele><time>2026-03-28T15:54:45.854Z</time></trkpt><trkpt lat="43.77803" lon="11.2027017"><ele>40.0</ele><time>2026-03-28T15:54:47.854Z</time></trkpt><trkpt lat="43.778" lon="11.2028083"><ele>40.0</ele><time>2026-03-28T15:54:49.854Z</time></trkpt><trkpt lat="43.7779733" lon="11.2029067"><ele>40.0</ele><time>2026-03-28T15:54:51.854Z</time></trkpt><trkpt lat="43.7779417" lon="11.2030083"><ele>40.0</ele><time>2026-03-28T15:54:53.854Z</time></trkpt><trkpt lat="43.7779083" lon="11.20311"><ele>40.0</ele><time>2026-03-28T15:54:55.854Z</time></trkpt><trkpt lat="43.7778767" lon="11.2032083"><ele>40.0</ele><time>2026-03-28T15:54:57.854Z</time></trkpt><trkpt lat="43.777845" lon="11.20331"><ele>40.0</ele><time>2026-03-28T15:54:59.854Z</time></trkpt><trkpt lat="43.7778217" lon="11.2034167"><ele>40.0</ele><time>2026-03-28T15:55:01.854Z</time></trkpt><trkpt lat="43.7777933" lon="11.2035217"><ele>40.0</ele><time>2026-03-28T15:55:03.854Z</time></trkpt><trkpt lat="43.777765" lon="11.2036417"><ele>40.0</ele><time>2026-03-28T15:55:05.854Z</time></trkpt><trkpt lat="43.77774" lon="11.203765"><ele>40.0</ele><time>2026-03-28T15:55:07.853Z</time></trkpt><trkpt lat="43.7777067" lon="11.2038783"><ele>40.0</ele><time>2026-03-28T15:55:09.854Z</time></trkpt><trkpt lat="43.7776733" lon="11.2039817"><ele>40.0</ele><time>2026-03-28T15:55:11.854Z</time></trkpt><trkpt lat="43.7776417" lon="11.2040883"><ele>40.0</ele><time>2026-03-28T15:55:13.854Z</time></trkpt><trkpt lat="43.7776083" lon="11.2041933"><ele>40.0</ele><time>2026-03-28T15:55:15.854Z</time></trkpt><trkpt lat="43.7775683" lon="11.2043"><ele>40.0</ele><time>2026-03-28T15:55:17.854Z</time></trkpt><trkpt lat="43.7775183" lon="11.204415"><ele>40.0</ele><time>2026-03-28T15:55:19.854Z</time></trkpt><trkpt lat="43.77747" lon="11.204535"><ele>40.0</ele><time>2026-03-28T15:55:21.854Z</time></trkpt><trkpt lat="43.7774317" lon="11.2046533"><ele>40.0</ele><time>2026-03-28T15:55:23.854Z</time></trkpt><trkpt lat="43.7773917" lon="11.2047667"><ele>40.0</ele><time>2026-03-28T15:55:25.854Z</time></trkpt><trkpt lat="43.777355" lon="11.2048817"><ele>40.0</ele><time>2026-03-28T15:55:27.854Z</time></trkpt><trkpt lat="43.7773117" lon="11.2050033"><ele>40.0</ele><time>2026-03-28T15:55:29.853Z</time></trkpt><trkpt lat="43.777275" lon="11.20511"><ele>40.0</ele><time>2026-03-28T15:55:31.854Z</time></trkpt><trkpt lat="43.7772533" lon="11.2052117"><ele>40.0</ele><time>2026-03-28T15:55:33.854Z</time></trkpt><trkpt lat="43.7772183" lon="11.205305"><ele>40.0</ele><time>2026-03-28T15:55:35.854Z</time></trkpt><trkpt lat="43.7771883" lon="11.2054"><ele>40.0</ele><time>2026-03-28T15:55:37.854Z</time></trkpt><trkpt lat="43.7771483" lon="11.2054983"><ele>40.0</ele><time>2026-03-28T15:55:39.854Z</time></trkpt><trkpt lat="43.77711" lon="11.2055883"><ele>40.0</ele><time>2026-03-28T15:55:41.854Z</time></trkpt><trkpt lat="43.7770733" lon="11.2057"><ele>40.0</ele><time>2026-03-28T15:55:43.854Z</time></trkpt><trkpt lat="43.777045" lon="11.2058033"><ele>40.0</ele><time>2026-03-28T15:55:45.854Z</time></trkpt><trkpt lat="43.7770183" lon="11.2059"><ele>40.0</ele><time>2026-03-28T15:55:47.853Z</time></trkpt><trkpt lat="43.7769983" lon="11.2059833"><ele>40.0</ele><time>2026-03-28T15:55:49.854Z</time></trkpt><trkpt lat="43.7770567" lon="11.20607"><ele>40.0</ele><time>2026-03-28T15:55:52.854Z</time></trkpt><trkpt lat="43.777135" lon="11.2060983"><ele>40.0</ele><time>2026-03-28T15:55:54.854Z</time></trkpt><trkpt lat="43.7772133" lon="11.2060967"><ele>40.0</ele><time>2026-03-28T15:55:56.854Z</time></trkpt><trkpt lat="43.777295" lon="11.206085"><ele>40.0</ele><time>2026-03-28T15:55:58.854Z</time></trkpt><trkpt lat="43.7773583" lon="11.2060483"><ele>40.0</ele><time>2026-03-28T15:56:00.854Z</time></trkpt><trkpt lat="43.77745" lon="11.2060117"><ele>40.0</ele><time>2026-03-28T15:56:03.854Z</time></trkpt><trkpt lat="43.7775117" lon="11.2059783"><ele>40.0</ele><time>2026-03-28T15:56:05.854Z</time></trkpt><trkpt lat="43.77757" lon="11.20594"><ele>40.0</ele><time>2026-03-28T15:56:07.854Z</time></trkpt><trkpt lat="43.7776317" lon="11.2059017"><ele>40.0</ele><time>2026-03-28T15:56:09.854Z</time></trkpt><trkpt lat="43.7776983" lon="11.20586"><ele>40.0</ele><time>2026-03-28T15:56:11.854Z</time></trkpt><trkpt lat="43.7777633" lon="11.20582"><ele>40.0</ele><time>2026-03-28T15:56:13.853Z</time></trkpt><trkpt lat="43.7778317" lon="11.205775"><ele>40.14285714285714</ele><time>2026-03-28T15:56:15.854Z</time></trkpt><trkpt lat="43.7778933" lon="11.2057433"><ele>40.285714285714285</ele><time>2026-03-28T15:56:17.854Z</time></trkpt><trkpt lat="43.7779583" lon="11.2057183"><ele>40.42857142857143</ele><time>2026-03-28T15:56:19.854Z</time></trkpt><trkpt lat="43.7780233" lon="11.20567"><ele>40.57142857142857</ele><time>2026-03-28T15:56:21.854Z</time></trkpt><trkpt lat="43.778085" lon="11.2056283"><ele>40.714285714285715</ele><time>2026-03-28T15:56:23.853Z</time></trkpt><trkpt lat="43.77816" lon="11.2055983"><ele>40.857142857142854</ele><time>2026-03-28T15:56:25.854Z</time></trkpt><trkpt lat="43.7782383" lon="11.205565"><ele>41.0</ele><time>2026-03-28T15:56:27.854Z</time></trkpt><trkpt lat="43.7783233" lon="11.2055383"><ele>41.0</ele><time>2026-03-28T15:56:29.854Z</time></trkpt><trkpt lat="43.778405" lon="11.2055117"><ele>41.0</ele><time>2026-03-28T15:56:31.854Z</time></trkpt><trkpt lat="43.7784967" lon="11.20549"><ele>41.0</ele><time>2026-03-28T15:56:33.854Z</time></trkpt><trkpt lat="43.7785733" lon="11.2054633"><ele>41.0</ele><time>2026-03-28T15:56:35.854Z</time></trkpt><trkpt lat="43.7786517" lon="11.2053867"><ele>41.0</ele><time>2026-03-28T15:56:39.854Z</time></trkpt><trkpt lat="43.7787167" lon="11.2053467"><ele>41.0</ele><time>2026-03-28T15:56:41.854Z</time></trkpt><trkpt lat="43.77881" lon="11.2053083"><ele>41.0</ele><time>2026-03-28T15:56:43.854Z</time></trkpt><trkpt lat="43.778895" lon="11.2052683"><ele>41.0</ele><time>2026-03-28T15:56:45.854Z</time></trkpt><trkpt lat="43.77898" lon="11.2052233"><ele>41.0</ele><time>2026-03-28T15:56:47.854Z</time></trkpt><trkpt lat="43.7790617" lon="11.2051767"><ele>41.0</ele><time>2026-03-28T15:56:49.853Z</time></trkpt><trkpt lat="43.779135" lon="11.20513"><ele>41.0</ele><time>2026-03-28T15:56:51.854Z</time></trkpt><trkpt lat="43.7791933" lon="11.2050917"><ele>41.0</ele><time>2026-03-28T15:56:53.854Z</time></trkpt><trkpt lat="43.7792717" lon="11.2050583"><ele>41.0</ele><time>2026-03-28T15:56:56.854Z</time></trkpt><trkpt lat="43.77935" lon="11.2050717"><ele>41.0</ele><time>2026-03-28T15:56:59.854Z</time></trkpt><trkpt lat="43.7794333" lon="11.2050583"><ele>41.0</ele><time>2026-03-28T15:57:03.854Z</time></trkpt><trkpt lat="43.7795133" lon="11.20504"><ele>41.0</ele><time>2026-03-28T15:57:07.854Z</time></trkpt><trkpt lat="43.7795767" lon="11.2050567"><ele>41.0</ele><time>2026-03-28T15:57:09.854Z</time></trkpt><trkpt lat="43.779655" lon="11.205065"><ele>41.0</ele><time>2026-03-28T15:57:12.854Z</time></trkpt><trkpt lat="43.7797333" lon="11.20502"><ele>40.33333333333333</ele><time>2026-03-28T15:57:15.853Z</time></trkpt><trkpt lat="43.7797933" lon="11.2049833"><ele>39.666666666666664</ele><time>2026-03-28T15:57:17.854Z</time></trkpt><trkpt lat="43.7798533" lon="11.2049417"><ele>39.0</ele><time>2026-03-28T15:57:19.854Z</time></trkpt><trkpt lat="43.7799267" lon="11.20493"><ele>38.333333333333336</ele><time>2026-03-28T15:57:21.854Z</time></trkpt><trkpt lat="43.77999" lon="11.2049067"><ele>37.66666666666667</ele><time>2026-03-28T15:57:23.854Z</time></trkpt><trkpt lat="43.7800717" lon="11.2048783"><ele>37.0</ele><time>2026-03-28T15:57:25.854Z</time></trkpt><trkpt lat="43.7801633" lon="11.2048517"><ele>37.16666666666667</ele><time>2026-03-28T15:57:27.854Z</time></trkpt><trkpt lat="43.7802683" lon="11.2048167"><ele>37.333333333333336</ele><time>2026-03-28T15:57:29.853Z</time></trkpt><trkpt lat="43.78035" lon="11.20479"><ele>37.5</ele><time>2026-03-28T15:57:31.854Z</time></trkpt><trkpt lat="43.7804267" lon="11.2047583"><ele>37.666666666666664</ele><time>2026-03-28T15:57:33.854Z</time></trkpt><trkpt lat="43.78049" lon="11.2047417"><ele>37.83333333333333</ele><time>2026-03-28T15:57:35.854Z</time></trkpt><trkpt lat="43.7805817" lon="11.2047183"><ele>38.0</ele><time>2026-03-28T15:57:38.854Z</time></trkpt><trkpt lat="43.7806483" lon="11.20469"><ele>38.0</ele><time>2026-03-28T15:57:40.854Z</time></trkpt><trkpt lat="43.78073" lon="11.2046417"><ele>38.0</ele><time>2026-03-28T15:57:43.854Z</time></trkpt><trkpt lat="43.7808117" lon="11.2046067"><ele>38.0</ele><time>2026-03-28T15:57:46.854Z</time></trkpt><trkpt lat="43.7808983" lon="11.2045667"><ele>38.0</ele><time>2026-03-28T15:57:49.854Z</time></trkpt><trkpt lat="43.7809717" lon="11.204525"><ele>38.0</ele><time>2026-03-28T15:57:52.854Z</time></trkpt><trkpt lat="43.78106" lon="11.2045017"><ele>38.0</ele><time>2026-03-28T15:57:55.854Z</time></trkpt><trkpt lat="43.78113" lon="11.2044983"><ele>38.166666666666664</ele><time>2026-03-28T15:57:57.854Z</time></trkpt><trkpt lat="43.781195" lon="11.20449"><ele>38.33333333333333</ele><time>2026-03-28T15:57:59.853Z</time></trkpt><trkpt lat="43.7812767" lon="11.204485"><ele>38.5</ele><time>2026-03-28T15:58:01.854Z</time></trkpt><trkpt lat="43.781355" lon="11.2045033"><ele>38.666666666666664</ele><time>2026-03-28T15:58:03.854Z</time></trkpt><trkpt lat="43.7814367" lon="11.2045"><ele>38.833333333333336</ele><time>2026-03-28T15:58:06.854Z</time></trkpt><trkpt lat="43.7815167" lon="11.2045167"><ele>39.0</ele><time>2026-03-28T15:58:09.854Z</time></trkpt><trkpt lat="43.7815817" lon="11.2045767"><ele>39.0</ele><time>2026-03-28T15:58:12.854Z</time></trkpt><trkpt lat="43.781665" lon="11.2045967"><ele>39.0</ele><time>2026-03-28T15:58:15.854Z</time></trkpt><trkpt lat="43.7817517" lon="11.204615"><ele>39.0</ele><time>2026-03-28T15:58:18.854Z</time></trkpt><trkpt lat="43.7818433" lon="11.2045767"><ele>39.0</ele><time>2026-03-28T15:58:21.854Z</time></trkpt><trkpt lat="43.7819217" lon="11.2045717"><ele>39.0</ele><time>2026-03-28T15:58:23.854Z</time></trkpt><trkpt lat="43.7819667" lon="11.204635"><ele>39.0</ele><time>2026-03-28T15:58:25.854Z</time></trkpt><trkpt lat="43.7819867" lon="11.2047217"><ele>39.0</ele><time>2026-03-28T15:58:27.854Z</time></trkpt><trkpt lat="43.7820167" lon="11.2048067"><ele>39.0</ele><time>2026-03-28T15:58:30.854Z</time></trkpt><trkpt lat="43.7820833" lon="11.2047867"><ele>39.0</ele><time>2026-03-28T15:58:35.854Z</time></trkpt><trkpt lat="43.782115" lon="11.204675"><ele>39.0</ele><time>2026-03-28T15:58:38.854Z</time></trkpt><trkpt lat="43.782135" lon="11.2045533"><ele>39.0</ele><time>2026-03-28T15:58:40.854Z</time></trkpt><trkpt lat="43.78215" lon="11.2044333"><ele>39.0</ele><time>2026-03-28T15:58:42.853Z</time></trkpt><trkpt lat="43.7821767" lon="11.2043067"><ele>39.0</ele><time>2026-03-28T15:58:44.854Z</time></trkpt><trkpt lat="43.7822" lon="11.2041967"><ele>39.0</ele><time>2026-03-28T15:58:46.854Z</time></trkpt><trkpt lat="43.78223" lon="11.2040967"><ele>39.0</ele><time>2026-03-28T15:58:48.854Z</time></trkpt><trkpt lat="43.7822717" lon="11.2040117"><ele>39.0</ele><time>2026-03-28T15:58:50.854Z</time></trkpt><trkpt lat="43.78234" lon="11.2039417"><ele>39.0</ele><time>2026-03-28T15:58:53.854Z</time></trkpt><trkpt lat="43.7824317" lon="11.2039533"><ele>39.0</ele><time>2026-03-28T15:58:56.853Z</time></trkpt><trkpt lat="43.7824967" lon="11.2039733"><ele>39.0</ele><time>2026-03-28T15:58:58.854Z</time></trkpt><trkpt lat="43.7825667" lon="11.2040017"><ele>39.0</ele><time>2026-03-28T15:59:00.854Z</time></trkpt><trkpt lat="43.7826383" lon="11.20404"><ele>39.0</ele><time>2026-03-28T15:59:02.854Z</time></trkpt><trkpt lat="43.7827233" lon="11.2040717"><ele>39.0</ele><time>2026-03-28T15:59:04.854Z</time></trkpt><trkpt lat="43.7828217" lon="11.2041033"><ele>39.0</ele><time>2026-03-28T15:59:06.854Z</time></trkpt><trkpt lat="43.7829133" lon="11.2041267"><ele>39.0</ele><time>2026-03-28T15:59:08.854Z</time></trkpt><trkpt lat="43.7829967" lon="11.2041567"><ele>39.166666666666664</ele><time>2026-03-28T15:59:10.854Z</time></trkpt><trkpt lat="43.7830883" lon="11.2041783"><ele>39.333333333333336</ele><time>2026-03-28T15:59:12.854Z</time></trkpt><trkpt lat="43.78317" lon="11.2042067"><ele>39.5</ele><time>2026-03-28T15:59:14.854Z</time></trkpt><trkpt lat="43.78326" lon="11.2042533"><ele>39.66666666666667</ele><time>2026-03-28T15:59:16.854Z</time></trkpt><trkpt lat="43.783335" lon="11.2042717"><ele>39.833333333333336</ele><time>2026-03-28T15:59:18.854Z</time></trkpt><trkpt lat="43.783415" lon="11.2043"><ele>40.0</ele><time>2026-03-28T15:59:20.853Z</time></trkpt><trkpt lat="43.7834817" lon="11.2043283"><ele>40.0</ele><time>2026-03-28T15:59:22.854Z</time></trkpt><trkpt lat="43.7835483" lon="11.2043283"><ele>40.0</ele><time>2026-03-28T15:59:24.853Z</time></trkpt><trkpt lat="43.7836133" lon="11.204345"><ele>40.0</ele><time>2026-03-28T15:59:26.853Z</time></trkpt><trkpt lat="43.7836933" lon="11.20436"><ele>40.0</ele><time>2026-03-28T15:59:28.852Z</time></trkpt><trkpt lat="43.783755" lon="11.2043967"><ele>40.0</ele><time>2026-03-28T15:59:30.853Z</time></trkpt><trkpt lat="43.7838233" lon="11.2044383"><ele>40.0</ele><time>2026-03-28T15:59:32.853Z</time></trkpt><trkpt lat="43.7838983" lon="11.20448"><ele>40.0</ele><time>2026-03-28T15:59:35.853Z</time></trkpt><trkpt lat="43.783975" lon="11.2045233"><ele>40.0</ele><time>2026-03-28T15:59:38.853Z</time></trkpt><trkpt lat="43.784065" lon="11.2045583"><ele>40.0</ele><time>2026-03-28T15:59:41.853Z</time></trkpt><trkpt lat="43.7841333" lon="11.2045917"><ele>40.0</ele><time>2026-03-28T15:59:43.853Z</time></trkpt><trkpt lat="43.784225" lon="11.2046183"><ele>40.0</ele><time>2026-03-28T15:59:46.852Z</time></trkpt><trkpt lat="43.7842883" lon="11.204645"><ele>40.0</ele><time>2026-03-28T15:59:48.853Z</time></trkpt><trkpt lat="43.784375" lon="11.2046867"><ele>40.0</ele><time>2026-03-28T15:59:51.852Z</time></trkpt><trkpt lat="43.7844383" lon="11.20472"><ele>40.0</ele><time>2026-03-28T15:59:53.853Z</time></trkpt><trkpt lat="43.7845133" lon="11.204745"><ele>40.0</ele><time>2026-03-28T15:59:55.853Z</time></trkpt><trkpt lat="43.7845983" lon="11.2047717"><ele>40.0</ele><time>2026-03-28T15:59:57.853Z</time></trkpt><trkpt lat="43.7846767" lon="11.204795"><ele>40.0</ele><time>2026-03-28T15:59:59.853Z</time></trkpt><trkpt lat="43.784745" lon="11.2048267"><ele>40.0</ele><time>2026-03-28T16:00:01.853Z</time></trkpt><trkpt lat="43.7848117" lon="11.2048533"><ele>40.0</ele><time>2026-03-28T16:00:03.853Z</time></trkpt><trkpt lat="43.784885" lon="11.204875"><ele>39.833333333333336</ele><time>2026-03-28T16:00:05.853Z</time></trkpt><trkpt lat="43.7849733" lon="11.20493"><ele>39.66666666666667</ele><time>2026-03-28T16:00:08.853Z</time></trkpt><trkpt lat="43.78501" lon="11.2050283"><ele>39.5</ele><time>2026-03-28T16:00:11.853Z</time></trkpt><trkpt lat="43.7850133" lon="11.205125"><ele>39.333333333333336</ele><time>2026-03-28T16:00:14.853Z</time></trkpt><trkpt lat="43.785005" lon="11.20522"><ele>39.166666666666664</ele><time>2026-03-28T16:00:16.853Z</time></trkpt><trkpt lat="43.78497" lon="11.2053117"><ele>39.0</ele><time>2026-03-28T16:00:18.853Z</time></trkpt><trkpt lat="43.7849233" lon="11.2054"><ele>39.0</ele><time>2026-03-28T16:00:20.853Z</time></trkpt><trkpt lat="43.7848833" lon="11.20549"><ele>39.0</ele><time>2026-03-28T16:00:22.853Z</time></trkpt><trkpt lat="43.7848383" lon="11.2055767"><ele>39.0</ele><time>2026-03-28T16:00:24.853Z</time></trkpt><trkpt lat="43.7847917" lon="11.2056683"><ele>39.0</ele><time>2026-03-28T16:00:26.853Z</time></trkpt><trkpt lat="43.7847367" lon="11.205765"><ele>39.0</ele><time>2026-03-28T16:00:28.853Z</time></trkpt><trkpt lat="43.7846917" lon="11.2058483"><ele>39.0</ele><time>2026-03-28T16:00:30.853Z</time></trkpt><trkpt lat="43.784645" lon="11.2059567"><ele>39.166666666666664</ele><time>2026-03-28T16:00:32.853Z</time></trkpt><trkpt lat="43.7846083" lon="11.2060567"><ele>39.333333333333336</ele><time>2026-03-28T16:00:34.853Z</time></trkpt><trkpt lat="43.78456" lon="11.206145"><ele>39.5</ele><time>2026-03-28T16:00:36.853Z</time></trkpt><trkpt lat="43.78452" lon="11.2062483"><ele>39.66666666666667</ele><time>2026-03-28T16:00:38.853Z</time></trkpt><trkpt lat="43.7844817" lon="11.20634"><ele>39.833333333333336</ele><time>2026-03-28T16:00:40.852Z</time></trkpt><trkpt lat="43.7844483" lon="11.2064167"><ele>40.0</ele><time>2026-03-28T16:00:42.853Z</time></trkpt><trkpt lat="43.7843983" lon="11.2065017"><ele>40.0</ele><time>2026-03-28T16:00:44.853Z</time></trkpt><trkpt lat="43.784345" lon="11.2066"><ele>40.0</ele><time>2026-03-28T16:00:46.852Z</time></trkpt><trkpt lat="43.7842867" lon="11.2067017"><ele>40.0</ele><time>2026-03-28T16:00:48.853Z</time></trkpt><trkpt lat="43.7842483" lon="11.2067867"><ele>40.0</ele><time>2026-03-28T16:00:50.853Z</time></trkpt><trkpt lat="43.7842133" lon="11.2068733"><ele>40.0</ele><time>2026-03-28T16:00:52.853Z</time></trkpt><trkpt lat="43.7841683" lon="11.2069617"><ele>40.0</ele><time>2026-03-28T16:00:54.853Z</time></trkpt><trkpt lat="43.7841183" lon="11.2070683"><ele>40.0</ele><time>2026-03-28T16:00:56.853Z</time></trkpt><trkpt lat="43.7840733" lon="11.20719"><ele>40.0</ele><time>2026-03-28T16:00:58.853Z</time></trkpt><trkpt lat="43.784025" lon="11.2073017"><ele>40.0</ele><time>2026-03-28T16:01:00.853Z</time></trkpt><trkpt lat="43.78397" lon="11.20742"><ele>40.0</ele><time>2026-03-28T16:01:02.853Z</time></trkpt><trkpt lat="43.7839083" lon="11.2075383"><ele>40.0</ele><time>2026-03-28T16:01:04.853Z</time></trkpt><trkpt lat="43.783865" lon="11.20766"><ele>39.66666666666667</ele><time>2026-03-28T16:01:06.852Z</time></trkpt><trkpt lat="43.7838133" lon="11.20776"><ele>39.333333333333336</ele><time>2026-03-28T16:01:08.853Z</time></trkpt><trkpt lat="43.7837733" lon="11.2078467"><ele>39.0</ele><time>2026-03-28T16:01:10.853Z</time></trkpt><trkpt lat="43.783745" lon="11.2079483"><ele>38.666666666666664</ele><time>2026-03-28T16:01:12.853Z</time></trkpt><trkpt lat="43.7837233" lon="11.2080517"><ele>38.33333333333333</ele><time>2026-03-28T16:01:14.853Z</time></trkpt><trkpt lat="43.7836833" lon="11.208175"><ele>38.0</ele><time>2026-03-28T16:01:16.853Z</time></trkpt><trkpt lat="43.7836" lon="11.2083667"><ele>38.199999999999996</ele><time>2026-03-28T16:01:19.853Z</time></trkpt><trkpt lat="43.7835483" lon="11.2084867"><ele>38.4</ele><time>2026-03-28T16:01:21.853Z</time></trkpt><trkpt lat="43.783495" lon="11.2086117"><ele>38.599999999999994</ele><time>2026-03-28T16:01:23.853Z</time></trkpt><trkpt lat="43.783445" lon="11.2087467"><ele>38.8</ele><time>2026-03-28T16:01:25.853Z</time></trkpt><trkpt lat="43.7834067" lon="11.208895"><ele>39.0</ele><time>2026-03-28T16:01:27.853Z</time></trkpt><trkpt lat="43.7833733" lon="11.2090283"><ele>39.0</ele><time>2026-03-28T16:01:29.853Z</time></trkpt><trkpt lat="43.7833417" lon="11.2091617"><ele>39.0</ele><time>2026-03-28T16:01:31.853Z</time></trkpt><trkpt lat="43.7833267" lon="11.20927"><ele>39.0</ele><time>2026-03-28T16:01:33.853Z</time></trkpt><trkpt lat="43.7832917" lon="11.20938"><ele>39.0</ele><time>2026-03-28T16:01:35.853Z</time></trkpt><trkpt lat="43.7832533" lon="11.2094667"><ele>39.0</ele><time>2026-03-28T16:01:37.853Z</time></trkpt><trkpt lat="43.7832067" lon="11.2095567"><ele>39.0</ele><time>2026-03-28T16:01:39.853Z</time></trkpt><trkpt lat="43.783145" lon="11.209665"><ele>39.0</ele><time>2026-03-28T16:01:41.852Z</time></trkpt><trkpt lat="43.783065" lon="11.2097683"><ele>39.0</ele><time>2026-03-28T16:01:43.853Z</time></trkpt><trkpt lat="43.7830033" lon="11.2098633"><ele>39.0</ele><time>2026-03-28T16:01:45.853Z</time></trkpt><trkpt lat="43.7829567" lon="11.2099883"><ele>39.0</ele><time>2026-03-28T16:01:47.853Z</time></trkpt><trkpt lat="43.78293" lon="11.21011"><ele>39.0</ele><time>2026-03-28T16:01:49.853Z</time></trkpt><trkpt lat="43.7828817" lon="11.2102167"><ele>39.2</ele><time>2026-03-28T16:01:51.853Z</time></trkpt><trkpt lat="43.7828367" lon="11.210335"><ele>39.4</ele><time>2026-03-28T16:01:53.853Z</time></trkpt><trkpt lat="43.7827817" lon="11.21045"><ele>39.6</ele><time>2026-03-28T16:01:55.853Z</time></trkpt><trkpt lat="43.7827267" lon="11.2105583"><ele>39.8</ele><time>2026-03-28T16:01:57.853Z</time></trkpt><trkpt lat="43.7826683" lon="11.2106533"><ele>40.0</ele><time>2026-03-28T16:01:59.853Z</time></trkpt><trkpt lat="43.7826033" lon="11.2107383"><ele>39.5</ele><time>2026-03-28T16:02:01.853Z</time></trkpt><trkpt lat="43.7825483" lon="11.21082"><ele>39.0</ele><time>2026-03-28T16:02:03.853Z</time></trkpt><trkpt lat="43.78251" lon="11.210925"><ele>38.5</ele><time>2026-03-28T16:02:05.853Z</time></trkpt><trkpt lat="43.7824617" lon="11.2110483"><ele>38.0</ele><time>2026-03-28T16:02:07.853Z</time></trkpt><trkpt lat="43.7824333" lon="11.2111283"><ele>37.5</ele><time>2026-03-28T16:02:08.853Z</time></trkpt><trkpt lat="43.7823917" lon="11.2112617"><ele>37.0</ele><time>2026-03-28T16:02:10.853Z</time></trkpt><trkpt lat="43.7823517" lon="11.2113917"><ele>36.2</ele><time>2026-03-28T16:02:12.853Z</time></trkpt><trkpt lat="43.7823" lon="11.2115233"><ele>35.400000000000006</ele><time>2026-03-28T16:02:14.853Z</time></trkpt><trkpt lat="43.7822467" lon="11.2116317"><ele>34.599999999999994</ele><time>2026-03-28T16:02:16.853Z</time></trkpt><trkpt lat="43.782195" lon="11.2117433"><ele>33.8</ele><time>2026-03-28T16:02:18.852Z</time></trkpt><trkpt lat="43.7821467" lon="11.2118567"><ele>33.0</ele><time>2026-03-28T16:02:20.853Z</time></trkpt><trkpt lat="43.7821067" lon="11.21194"><ele>33.0</ele><time>2026-03-28T16:02:22.853Z</time></trkpt><trkpt lat="43.7820517" lon="11.2120383"><ele>33.0</ele><time>2026-03-28T16:02:24.852Z</time></trkpt><trkpt lat="43.7820167" lon="11.21212"><ele>33.0</ele><time>2026-03-28T16:02:26.853Z</time></trkpt><trkpt lat="43.7819683" lon="11.2122183"><ele>33.0</ele><time>2026-03-28T16:02:28.853Z</time></trkpt><trkpt lat="43.781915" lon="11.212345"><ele>33.0</ele><time>2026-03-28T16:02:30.853Z</time></trkpt><trkpt lat="43.781885" lon="11.212445"><ele>33.0</ele><time>2026-03-28T16:02:32.853Z</time></trkpt><trkpt lat="43.7818483" lon="11.2125467"><ele>34.0</ele><time>2026-03-28T16:02:34.853Z</time></trkpt><trkpt lat="43.781815" lon="11.21264"><ele>35.0</ele><time>2026-03-28T16:02:37.853Z</time></trkpt><trkpt lat="43.7817867" lon="11.212725"><ele>36.0</ele><time>2026-03-28T16:02:39.853Z</time></trkpt><trkpt lat="43.7817483" lon="11.2128367"><ele>37.0</ele><time>2026-03-28T16:02:42.853Z</time></trkpt><trkpt lat="43.781685" lon="11.2129183"><ele>38.0</ele><time>2026-03-28T16:02:46.853Z</time></trkpt><trkpt lat="43.781635" lon="11.21301"><ele>39.0</ele><time>2026-03-28T16:02:49.853Z</time></trkpt><trkpt lat="43.7815967" lon="11.2130883"><ele>38.5</ele><time>2026-03-28T16:02:51.853Z</time></trkpt><trkpt lat="43.7815417" lon="11.2131733"><ele>38.0</ele><time>2026-03-28T16:02:54.853Z</time></trkpt><trkpt lat="43.7814867" lon="11.2132583"><ele>37.5</ele><time>2026-03-28T16:02:57.853Z</time></trkpt><trkpt lat="43.7814283" lon="11.2133567"><ele>37.0</ele><time>2026-03-28T16:03:00.853Z</time></trkpt><trkpt lat="43.7813833" lon="11.2134333"><ele>36.5</ele><time>2026-03-28T16:03:02.853Z</time></trkpt><trkpt lat="43.7813383" lon="11.2135283"><ele>36.0</ele><time>2026-03-28T16:03:04.853Z</time></trkpt><trkpt lat="43.7812983" lon="11.2136133"><ele>36.0</ele><time>2026-03-28T16:03:06.853Z</time></trkpt><trkpt lat="43.7812683" lon="11.2136933"><ele>36.0</ele><time>2026-03-28T16:03:08.853Z</time></trkpt><trkpt lat="43.7812333" lon="11.2137833"><ele>36.0</ele><time>2026-03-28T16:03:10.853Z</time></trkpt><trkpt lat="43.7811883" lon="11.21386"><ele>36.0</ele><time>2026-03-28T16:03:12.853Z</time></trkpt><trkpt lat="43.7811183" lon="11.2138967"><ele>36.0</ele><time>2026-03-28T16:03:14.853Z</time></trkpt><trkpt lat="43.781045" lon="11.214"><ele>36.0</ele><time>2026-03-28T16:03:17.853Z</time></trkpt><trkpt lat="43.7810017" lon="11.2140883"><ele>36.57142857142858</ele><time>2026-03-28T16:03:19.853Z</time></trkpt><trkpt lat="43.7809683" lon="11.21417"><ele>37.142857142857146</ele><time>2026-03-28T16:03:21.853Z</time></trkpt><trkpt lat="43.7809283" lon="11.21426"><ele>37.714285714285715</ele><time>2026-03-28T16:03:23.853Z</time></trkpt><trkpt lat="43.7808917" lon="11.2143333"><ele>38.28571428571429</ele><time>2026-03-28T16:03:25.853Z</time></trkpt><trkpt lat="43.78085" lon="11.214415"><ele>38.85714285714286</ele><time>2026-03-28T16:03:27.853Z</time></trkpt><trkpt lat="43.7808117" lon="11.2144917"><ele>39.42857142857143</ele><time>2026-03-28T16:03:29.853Z</time></trkpt><trkpt lat="43.780775" lon="11.2145683"><ele>40.0</ele><time>2026-03-28T16:03:31.853Z</time></trkpt><trkpt lat="43.7807383" lon="11.214645"><ele>40.0</ele><time>2026-03-28T16:03:33.853Z</time></trkpt><trkpt lat="43.7806967" lon="11.2147333"><ele>40.0</ele><time>2026-03-28T16:03:35.853Z</time></trkpt><trkpt lat="43.7806667" lon="11.2148267"><ele>40.0</ele><time>2026-03-28T16:03:37.853Z</time></trkpt><trkpt lat="43.78063" lon="11.2149233"><ele>40.0</ele><time>2026-03-28T16:03:39.853Z</time></trkpt><trkpt lat="43.7805983" lon="11.2150117"><ele>40.0</ele><time>2026-03-28T16:03:41.853Z</time></trkpt><trkpt lat="43.7805583" lon="11.21511"><ele>40.0</ele><time>2026-03-28T16:03:43.853Z</time></trkpt><trkpt lat="43.7805267" lon="11.2152"><ele>39.833333333333336</ele><time>2026-03-28T16:03:45.853Z</time></trkpt><trkpt lat="43.7804783" lon="11.2152983"><ele>39.66666666666667</ele><time>2026-03-28T16:03:47.853Z</time></trkpt><trkpt lat="43.7804267" lon="11.2153983"><ele>39.5</ele><time>2026-03-28T16:03:49.853Z</time></trkpt><trkpt lat="43.78038" lon="11.2154967"><ele>39.333333333333336</ele><time>2026-03-28T16:03:51.853Z</time></trkpt><trkpt lat="43.7803267" lon="11.21561"><ele>39.166666666666664</ele><time>2026-03-28T16:03:53.853Z</time></trkpt><trkpt lat="43.78028" lon="11.21572"><ele>39.0</ele><time>2026-03-28T16:03:55.853Z</time></trkpt><trkpt lat="43.7802367" lon="11.2158233"><ele>38.666666666666664</ele><time>2026-03-28T16:03:57.853Z</time></trkpt><trkpt lat="43.7801983" lon="11.215925"><ele>38.333333333333336</ele><time>2026-03-28T16:03:59.853Z</time></trkpt><trkpt lat="43.7801617" lon="11.2160283"><ele>38.0</ele><time>2026-03-28T16:04:01.853Z</time></trkpt><trkpt lat="43.7801233" lon="11.2161217"><ele>37.66666666666667</ele><time>2026-03-28T16:04:03.853Z</time></trkpt><trkpt lat="43.780075" lon="11.2162333"><ele>37.333333333333336</ele><time>2026-03-28T16:04:05.853Z</time></trkpt><trkpt lat="43.78002" lon="11.2163517"><ele>37.0</ele><time>2026-03-28T16:04:07.853Z</time></trkpt><trkpt lat="43.77997" lon="11.2164717"><ele>37.66666666666667</ele><time>2026-03-28T16:04:09.853Z</time></trkpt><trkpt lat="43.779925" lon="11.2165833"><ele>38.333333333333336</ele><time>2026-03-28T16:04:11.853Z</time></trkpt><trkpt lat="43.7798833" lon="11.2166883"><ele>39.0</ele><time>2026-03-28T16:04:13.853Z</time></trkpt><trkpt lat="43.77984" lon="11.2167933"><ele>39.666666666666664</ele><time>2026-03-28T16:04:15.853Z</time></trkpt><trkpt lat="43.7798033" lon="11.2169"><ele>40.33333333333333</ele><time>2026-03-28T16:04:17.853Z</time></trkpt><trkpt lat="43.7797817" lon="11.216995"><ele>41.0</ele><time>2026-03-28T16:04:19.853Z</time></trkpt><trkpt lat="43.779795" lon="11.2171483"><ele>40.99999999999999</ele><time>2026-03-28T16:04:22.853Z</time></trkpt><trkpt lat="43.7797767" lon="11.2172367"><ele>41.0</ele><time>2026-03-28T16:04:24.853Z</time></trkpt><trkpt lat="43.7797517" lon="11.2173267"><ele>41.0</ele><time>2026-03-28T16:04:26.853Z</time></trkpt><trkpt lat="43.7797217" lon="11.21743"><ele>41.0</ele><time>2026-03-28T16:04:28.853Z</time></trkpt><trkpt lat="43.7796933" lon="11.2175283"><ele>41.0</ele><time>2026-03-28T16:04:30.853Z</time></trkpt><trkpt lat="43.7796533" lon="11.217605"><ele>40.99999999999999</ele><time>2026-03-28T16:04:32.852Z</time></trkpt><trkpt lat="43.77959" lon="11.21769"><ele>41.0</ele><time>2026-03-28T16:04:34.853Z</time></trkpt><trkpt lat="43.779545" lon="11.2177817"><ele>40.83333333333333</ele><time>2026-03-28T16:04:36.853Z</time></trkpt><trkpt lat="43.77947" lon="11.2178617"><ele>40.666666666666664</ele><time>2026-03-28T16:04:38.853Z</time></trkpt><trkpt lat="43.7793917" lon="11.21794"><ele>40.5</ele><time>2026-03-28T16:04:40.852Z</time></trkpt><trkpt lat="43.77934" lon="11.2179933"><ele>40.333333333333336</ele><time>2026-03-28T16:04:41.852Z</time></trkpt><trkpt lat="43.7792733" lon="11.2180833"><ele>40.16666666666667</ele><time>2026-03-28T16:04:43.852Z</time></trkpt><trkpt lat="43.7792367" lon="11.2182017"><ele>40.0</ele><time>2026-03-28T16:04:45.851Z</time></trkpt><trkpt lat="43.7792083" lon="11.21833"><ele>40.333333333333336</ele><time>2026-03-28T16:04:47.852Z</time></trkpt><trkpt lat="43.7792017" lon="11.2184333"><ele>40.66666666666667</ele><time>2026-03-28T16:04:49.852Z</time></trkpt><trkpt lat="43.779185" lon="11.2185383"><ele>41.0</ele><time>2026-03-28T16:04:51.852Z</time></trkpt><trkpt lat="43.7791767" lon="11.2186267"><ele>41.333333333333336</ele><time>2026-03-28T16:04:53.852Z</time></trkpt><trkpt lat="43.7791467" lon="11.2187383"><ele>41.666666666666664</ele><time>2026-03-28T16:04:55.852Z</time></trkpt><trkpt lat="43.779115" lon="11.21884"><ele>42.0</ele><time>2026-03-28T16:04:57.852Z</time></trkpt><trkpt lat="43.7790733" lon="11.218935"><ele>41.8</ele><time>2026-03-28T16:04:59.851Z</time></trkpt><trkpt lat="43.779035" lon="11.21903"><ele>41.6</ele><time>2026-03-28T16:05:01.851Z</time></trkpt><trkpt lat="43.7789933" lon="11.21914"><ele>41.4</ele><time>2026-03-28T16:05:03.852Z</time></trkpt><trkpt lat="43.7789467" lon="11.2192517"><ele>41.199999999999996</ele><time>2026-03-28T16:05:05.852Z</time></trkpt><trkpt lat="43.7788867" lon="11.21941"><ele>41.0</ele><time>2026-03-28T16:05:08.852Z</time></trkpt><trkpt lat="43.7788483" lon="11.2195033"><ele>41.0</ele><time>2026-03-28T16:05:10.852Z</time></trkpt><trkpt lat="43.7788133" lon="11.2196033"><ele>41.0</ele><time>2026-03-28T16:05:12.851Z</time></trkpt><trkpt lat="43.77879" lon="11.2196983"><ele>41.0</ele><time>2026-03-28T16:05:14.852Z</time></trkpt><trkpt lat="43.7787567" lon="11.21983"><ele>41.0</ele><time>2026-03-28T16:05:17.851Z</time></trkpt><trkpt lat="43.7787133" lon="11.21995"><ele>41.0</ele><time>2026-03-28T16:05:19.852Z</time></trkpt><trkpt lat="43.778675" lon="11.220075"><ele>41.0</ele><time>2026-03-28T16:05:21.852Z</time></trkpt><trkpt lat="43.7786433" lon="11.2201833"><ele>41.166666666666664</ele><time>2026-03-28T16:05:23.852Z</time></trkpt><trkpt lat="43.7786033" lon="11.2202833"><ele>41.33333333333333</ele><time>2026-03-28T16:05:25.851Z</time></trkpt><trkpt lat="43.7785667" lon="11.2203767"><ele>41.5</ele><time>2026-03-28T16:05:27.852Z</time></trkpt><trkpt lat="43.778535" lon="11.2204883"><ele>41.666666666666664</ele><time>2026-03-28T16:05:29.852Z</time></trkpt><trkpt lat="43.7785083" lon="11.2206033"><ele>41.833333333333336</ele><time>2026-03-28T16:05:31.852Z</time></trkpt><trkpt lat="43.7784667" lon="11.2207183"><ele>42.0</ele><time>2026-03-28T16:05:33.851Z</time></trkpt><trkpt lat="43.778425" lon="11.2208367"><ele>42.8</ele><time>2026-03-28T16:05:35.851Z</time></trkpt><trkpt lat="43.77838" lon="11.2209567"><ele>43.6</ele><time>2026-03-28T16:05:37.852Z</time></trkpt><trkpt lat="43.77835" lon="11.2210583"><ele>44.4</ele><time>2026-03-28T16:05:39.852Z</time></trkpt><trkpt lat="43.7782933" lon="11.2211783"><ele>45.199999999999996</ele><time>2026-03-28T16:05:41.852Z</time></trkpt><trkpt lat="43.7782383" lon="11.2213067"><ele>46.0</ele><time>2026-03-28T16:05:43.852Z</time></trkpt><trkpt lat="43.7781833" lon="11.221425"><ele>46.0</ele><time>2026-03-28T16:05:45.852Z</time></trkpt><trkpt lat="43.7781233" lon="11.221545"><ele>46.0</ele><time>2026-03-28T16:05:47.852Z</time></trkpt><trkpt lat="43.7780717" lon="11.221645"><ele>46.0</ele><time>2026-03-28T16:05:49.852Z</time></trkpt><trkpt lat="43.77805" lon="11.22174"><ele>46.0</ele><time>2026-03-28T16:05:51.852Z</time></trkpt><trkpt lat="43.778035" lon="11.2218533"><ele>46.0</ele><time>2026-03-28T16:05:53.852Z</time></trkpt><trkpt lat="43.7780117" lon="11.2219467"><ele>46.0</ele><time>2026-03-28T16:05:55.852Z</time></trkpt><trkpt lat="43.7779833" lon="11.222035"><ele>46.0</ele><time>2026-03-28T16:05:57.852Z</time></trkpt><trkpt lat="43.777945" lon="11.22216"><ele>46.0</ele><time>2026-03-28T16:06:00.852Z</time></trkpt><trkpt lat="43.7779167" lon="11.2222517"><ele>46.0</ele><time>2026-03-28T16:06:02.852Z</time></trkpt><trkpt lat="43.777885" lon="11.22233"><ele>46.0</ele><time>2026-03-28T16:06:04.852Z</time></trkpt><trkpt lat="43.77784" lon="11.222455"><ele>46.0</ele><time>2026-03-28T16:06:07.852Z</time></trkpt><trkpt lat="43.777805" lon="11.222545"><ele>46.0</ele><time>2026-03-28T16:06:09.852Z</time></trkpt><trkpt lat="43.77776" lon="11.2226533"><ele>46.0</ele><time>2026-03-28T16:06:11.852Z</time></trkpt><trkpt lat="43.7777117" lon="11.2227933"><ele>46.0</ele><time>2026-03-28T16:06:13.852Z</time></trkpt><trkpt lat="43.7776633" lon="11.2229267"><ele>46.0</ele><time>2026-03-28T16:06:15.852Z</time></trkpt><trkpt lat="43.7776133" lon="11.2230667"><ele>46.0</ele><time>2026-03-28T16:06:17.852Z</time></trkpt><trkpt lat="43.7775733" lon="11.2231983"><ele>46.0</ele><time>2026-03-28T16:06:19.852Z</time></trkpt><trkpt lat="43.7775417" lon="11.2233133"><ele>45.5</ele><time>2026-03-28T16:06:21.852Z</time></trkpt><trkpt lat="43.77751" lon="11.2234217"><ele>45.0</ele><time>2026-03-28T16:06:23.852Z</time></trkpt><trkpt lat="43.7774883" lon="11.223525"><ele>44.5</ele><time>2026-03-28T16:06:25.852Z</time></trkpt><trkpt lat="43.7774517" lon="11.2236067"><ele>44.0</ele><time>2026-03-28T16:06:27.852Z</time></trkpt><trkpt lat="43.777395" lon="11.2236833"><ele>43.5</ele><time>2026-03-28T16:06:29.852Z</time></trkpt><trkpt lat="43.7773367" lon="11.2237967"><ele>43.0</ele><time>2026-03-28T16:06:31.852Z</time></trkpt><trkpt lat="43.7772817" lon="11.223915"><ele>42.199999999999996</ele><time>2026-03-28T16:06:33.852Z</time></trkpt><trkpt lat="43.7772367" lon="11.2240167"><ele>41.4</ele><time>2026-03-28T16:06:35.852Z</time></trkpt><trkpt lat="43.7772067" lon="11.224125"><ele>40.599999999999994</ele><time>2026-03-28T16:06:37.852Z</time></trkpt><trkpt lat="43.7771767" lon="11.2242433"><ele>39.8</ele><time>2026-03-28T16:06:39.852Z</time></trkpt><trkpt lat="43.77719" lon="11.22438"><ele>39.0</ele><time>2026-03-28T16:06:41.852Z</time></trkpt><trkpt lat="43.7771983" lon="11.2245933"><ele>39.0</ele><time>2026-03-28T16:06:44.852Z</time></trkpt><trkpt lat="43.7771767" lon="11.2247333"><ele>39.0</ele><time>2026-03-28T16:06:46.852Z</time></trkpt><trkpt lat="43.7771483" lon="11.2248517"><ele>39.0</ele><time>2026-03-28T16:06:48.852Z</time></trkpt><trkpt lat="43.77711" lon="11.2249667"><ele>39.0</ele><time>2026-03-28T16:06:50.852Z</time></trkpt><trkpt lat="43.7770783" lon="11.2250833"><ele>39.0</ele><time>2026-03-28T16:06:52.852Z</time></trkpt><trkpt lat="43.7770433" lon="11.22519"><ele>39.6</ele><time>2026-03-28T16:06:54.852Z</time></trkpt><trkpt lat="43.7769833" lon="11.2253483"><ele>40.2</ele><time>2026-03-28T16:06:57.852Z</time></trkpt><trkpt lat="43.776945" lon="11.225455"><ele>40.800000000000004</ele><time>2026-03-28T16:06:59.852Z</time></trkpt><trkpt lat="43.7768967" lon="11.2255817"><ele>41.4</ele><time>2026-03-28T16:07:01.852Z</time></trkpt><trkpt lat="43.77685" lon="11.22571"><ele>42.0</ele><time>2026-03-28T16:07:03.851Z</time></trkpt><trkpt lat="43.7768033" lon="11.2258517"><ele>42.0</ele><time>2026-03-28T16:07:05.852Z</time></trkpt><trkpt lat="43.7767583" lon="11.2259733"><ele>42.0</ele><time>2026-03-28T16:07:07.852Z</time></trkpt><trkpt lat="43.7767167" lon="11.2261033"><ele>42.0</ele><time>2026-03-28T16:07:09.852Z</time></trkpt><trkpt lat="43.7766783" lon="11.2262383"><ele>42.0</ele><time>2026-03-28T16:07:11.852Z</time></trkpt><trkpt lat="43.7766367" lon="11.2263717"><ele>42.0</ele><time>2026-03-28T16:07:13.852Z</time></trkpt><trkpt lat="43.776605" lon="11.2265033"><ele>42.0</ele><time>2026-03-28T16:07:15.852Z</time></trkpt><trkpt lat="43.77655" lon="11.2266467"><ele>42.0</ele><time>2026-03-28T16:07:17.852Z</time></trkpt><trkpt lat="43.7765017" lon="11.2267783"><ele>42.0</ele><time>2026-03-28T16:07:19.852Z</time></trkpt><trkpt lat="43.7764583" lon="11.226905"><ele>42.0</ele><time>2026-03-28T16:07:21.852Z</time></trkpt><trkpt lat="43.7764317" lon="11.2270367"><ele>42.0</ele><time>2026-03-28T16:07:23.852Z</time></trkpt><trkpt lat="43.77639" lon="11.2271867"><ele>42.0</ele><time>2026-03-28T16:07:25.852Z</time></trkpt><trkpt lat="43.776365" lon="11.227285"><ele>42.0</ele><time>2026-03-28T16:07:26.852Z</time></trkpt><trkpt lat="43.776335" lon="11.2273733"><ele>42.0</ele><time>2026-03-28T16:07:27.852Z</time></trkpt><trkpt lat="43.7763117" lon="11.2274583"><ele>42.0</ele><time>2026-03-28T16:07:28.852Z</time></trkpt><trkpt lat="43.7762583" lon="11.227605"><ele>42.0</ele><time>2026-03-28T16:07:30.852Z</time></trkpt><trkpt lat="43.7761967" lon="11.227745"><ele>42.0</ele><time>2026-03-28T16:07:32.852Z</time></trkpt><trkpt lat="43.7761483" lon="11.2278817"><ele>42.2</ele><time>2026-03-28T16:07:34.852Z</time></trkpt><trkpt lat="43.7761033" lon="11.2280267"><ele>42.400000000000006</ele><time>2026-03-28T16:07:36.852Z</time></trkpt><trkpt lat="43.7760567" lon="11.228155"><ele>42.599999999999994</ele><time>2026-03-28T16:07:38.852Z</time></trkpt><trkpt lat="43.7760267" lon="11.2282867"><ele>42.8</ele><time>2026-03-28T16:07:40.852Z</time></trkpt><trkpt lat="43.77599" lon="11.228415"><ele>43.0</ele><time>2026-03-28T16:07:42.852Z</time></trkpt><trkpt lat="43.7759517" lon="11.2285283"><ele>43.0</ele><time>2026-03-28T16:07:44.852Z</time></trkpt><trkpt lat="43.7759233" lon="11.2286217"><ele>43.0</ele><time>2026-03-28T16:07:46.851Z</time></trkpt><trkpt lat="43.7758883" lon="11.2287283"><ele>43.0</ele><time>2026-03-28T16:07:49.852Z</time></trkpt><trkpt lat="43.7758583" lon="11.2288517"><ele>43.0</ele><time>2026-03-28T16:07:52.852Z</time></trkpt><trkpt lat="43.7758683" lon="11.2289517"><ele>43.0</ele><time>2026-03-28T16:07:54.852Z</time></trkpt><trkpt lat="43.7759183" lon="11.229025"><ele>43.0</ele><time>2026-03-28T16:07:57.852Z</time></trkpt><trkpt lat="43.7759733" lon="11.2290683"><ele>42.833333333333336</ele><time>2026-03-28T16:08:00.852Z</time></trkpt><trkpt lat="43.7760367" lon="11.22915"><ele>42.66666666666667</ele><time>2026-03-28T16:08:03.852Z</time></trkpt><trkpt lat="43.77609" lon="11.2292"><ele>42.5</ele><time>2026-03-28T16:08:05.852Z</time></trkpt><trkpt lat="43.7761683" lon="11.2292717"><ele>42.333333333333336</ele><time>2026-03-28T16:08:08.852Z</time></trkpt><trkpt lat="43.7762267" lon="11.2293267"><ele>42.166666666666664</ele><time>2026-03-28T16:08:10.852Z</time></trkpt><trkpt lat="43.776285" lon="11.22937"><ele>42.0</ele><time>2026-03-28T16:08:12.852Z</time></trkpt><trkpt lat="43.7763417" lon="11.229425"><ele>42.0</ele><time>2026-03-28T16:08:14.851Z</time></trkpt><trkpt lat="43.7763983" lon="11.22947"><ele>42.0</ele><time>2026-03-28T16:08:16.852Z</time></trkpt><trkpt lat="43.7764517" lon="11.2295217"><ele>42.0</ele><time>2026-03-28T16:08:18.852Z</time></trkpt><trkpt lat="43.7765117" lon="11.229575"><ele>42.0</ele><time>2026-03-28T16:08:20.851Z</time></trkpt><trkpt lat="43.77657" lon="11.22962"><ele>42.0</ele><time>2026-03-28T16:08:22.852Z</time></trkpt><trkpt lat="43.77663" lon="11.2296717"><ele>42.0</ele><time>2026-03-28T16:08:24.852Z</time></trkpt><trkpt lat="43.7767317" lon="11.229775"><ele>42.2</ele><time>2026-03-28T16:08:27.852Z</time></trkpt><trkpt lat="43.7768217" lon="11.2298533"><ele>42.400000000000006</ele><time>2026-03-28T16:08:29.852Z</time></trkpt><trkpt lat="43.7768833" lon="11.2299533"><ele>42.599999999999994</ele><time>2026-03-28T16:08:31.852Z</time></trkpt><trkpt lat="43.7769033" lon="11.23007"><ele>42.8</ele><time>2026-03-28T16:08:33.852Z</time></trkpt><trkpt lat="43.7768617" lon="11.2302333"><ele>43.0</ele><time>2026-03-28T16:08:35.852Z</time></trkpt><trkpt lat="43.7768367" lon="11.2303217"><ele>43.0</ele><time>2026-03-28T16:08:36.851Z</time></trkpt><trkpt lat="43.77681" lon="11.2304017"><ele>43.0</ele><time>2026-03-28T16:08:37.852Z</time></trkpt><trkpt lat="43.77678" lon="11.2304883"><ele>43.0</ele><time>2026-03-28T16:08:38.852Z</time></trkpt><trkpt lat="43.77675" lon="11.230575"><ele>43.0</ele><time>2026-03-28T16:08:39.852Z</time></trkpt><trkpt lat="43.776725" lon="11.23066"><ele>43.0</ele><time>2026-03-28T16:08:40.852Z</time></trkpt><trkpt lat="43.7766767" lon="11.2308167"><ele>43.0</ele><time>2026-03-28T16:08:42.852Z</time></trkpt><trkpt lat="43.7766333" lon="11.2309617"><ele>43.2</ele><time>2026-03-28T16:08:44.852Z</time></trkpt><trkpt lat="43.7766017" lon="11.2310967"><ele>43.4</ele><time>2026-03-28T16:08:46.852Z</time></trkpt><trkpt lat="43.776565" lon="11.23122"><ele>43.6</ele><time>2026-03-28T16:08:48.852Z</time></trkpt><trkpt lat="43.7765317" lon="11.231345"><ele>43.800000000000004</ele><time>2026-03-28T16:08:50.852Z</time></trkpt><trkpt lat="43.7764983" lon="11.231475"><ele>44.0</ele><time>2026-03-28T16:08:52.852Z</time></trkpt><trkpt lat="43.7764633" lon="11.2316"><ele>44.666666666666664</ele><time>2026-03-28T16:08:54.852Z</time></trkpt><trkpt lat="43.7764283" lon="11.2317267"><ele>45.33333333333333</ele><time>2026-03-28T16:08:56.852Z</time></trkpt><trkpt lat="43.7764133" lon="11.2318217"><ele>46.0</ele><time>2026-03-28T16:08:58.852Z</time></trkpt><trkpt lat="43.7763817" lon="11.2319383"><ele>46.666666666666664</ele><time>2026-03-28T16:09:00.852Z</time></trkpt><trkpt lat="43.7763467" lon="11.2320467"><ele>47.333333333333336</ele><time>2026-03-28T16:09:02.852Z</time></trkpt><trkpt lat="43.7763167" lon="11.2321683"><ele>48.0</ele><time>2026-03-28T16:09:04.852Z</time></trkpt><trkpt lat="43.776275" lon="11.2323017"><ele>48.4</ele><time>2026-03-28T16:09:06.852Z</time></trkpt><trkpt lat="43.7762383" lon="11.23243"><ele>48.8</ele><time>2026-03-28T16:09:08.851Z</time></trkpt><trkpt lat="43.7762133" lon="11.232565"><ele>49.2</ele><time>2026-03-28T16:09:10.852Z</time></trkpt><trkpt lat="43.776185" lon="11.2327"><ele>49.6</ele><time>2026-03-28T16:09:12.852Z</time></trkpt><trkpt lat="43.776155" lon="11.232825"><ele>50.0</ele><time>2026-03-28T16:09:14.852Z</time></trkpt><trkpt lat="43.7761367" lon="11.2329367"><ele>50.0</ele><time>2026-03-28T16:09:16.852Z</time></trkpt><trkpt lat="43.776095" lon="11.2330667"><ele>50.0</ele><time>2026-03-28T16:09:18.852Z</time></trkpt><trkpt lat="43.77606" lon="11.2332183"><ele>50.0</ele><time>2026-03-28T16:09:20.852Z</time></trkpt><trkpt lat="43.77602" lon="11.2333467"><ele>50.0</ele><time>2026-03-28T16:09:22.852Z</time></trkpt><trkpt lat="43.77598" lon="11.2334733"><ele>50.0</ele><time>2026-03-28T16:09:24.852Z</time></trkpt><trkpt lat="43.7759533" lon="11.2335933"><ele>48.8</ele><time>2026-03-28T16:09:26.852Z</time></trkpt><trkpt lat="43.77593" lon="11.2337233"><ele>47.6</ele><time>2026-03-28T16:09:28.852Z</time></trkpt><trkpt lat="43.7759" lon="11.2338717"><ele>46.400000000000006</ele><time>2026-03-28T16:09:30.851Z</time></trkpt><trkpt lat="43.7758883" lon="11.233965"><ele>45.2</ele><time>2026-03-28T16:09:31.851Z</time></trkpt><trkpt lat="43.775875" lon="11.23412"><ele>44.0</ele><time>2026-03-28T16:09:33.851Z</time></trkpt><trkpt lat="43.77586" lon="11.234275"><ele>44.0</ele><time>2026-03-28T16:09:35.851Z</time></trkpt><trkpt lat="43.7758517" lon="11.234425"><ele>44.0</ele><time>2026-03-28T16:09:37.851Z</time></trkpt><trkpt lat="43.77586" lon="11.2345433"><ele>44.0</ele><time>2026-03-28T16:09:39.851Z</time></trkpt><trkpt lat="43.7758867" lon="11.2346583"><ele>44.0</ele><time>2026-03-28T16:09:41.851Z</time></trkpt><trkpt lat="43.7759333" lon="11.2347533"><ele>44.0</ele><time>2026-03-28T16:09:43.851Z</time></trkpt><trkpt lat="43.7759817" lon="11.2348333"><ele>44.0</ele><time>2026-03-28T16:09:45.851Z</time></trkpt><trkpt lat="43.77602" lon="11.2349233"><ele>44.0</ele><time>2026-03-28T16:09:47.851Z</time></trkpt><trkpt lat="43.77606" lon="11.2350567"><ele>44.0</ele><time>2026-03-28T16:09:49.851Z</time></trkpt><trkpt lat="43.77607" lon="11.23521"><ele>44.0</ele><time>2026-03-28T16:09:51.85Z</time></trkpt><trkpt lat="43.7760567" lon="11.235345"><ele>44.0</ele><time>2026-03-28T16:09:53.851Z</time></trkpt><trkpt lat="43.7760383" lon="11.2354733"><ele>44.0</ele><time>2026-03-28T16:09:55.851Z</time></trkpt><trkpt lat="43.7760083" lon="11.2356"><ele>44.33333333333333</ele><time>2026-03-28T16:09:57.851Z</time></trkpt><trkpt lat="43.775985" lon="11.2357133"><ele>44.666666666666664</ele><time>2026-03-28T16:09:59.851Z</time></trkpt><trkpt lat="43.7759633" lon="11.2358217"><ele>45.0</ele><time>2026-03-28T16:10:01.851Z</time></trkpt><trkpt lat="43.77594" lon="11.2359233"><ele>45.333333333333336</ele><time>2026-03-28T16:10:03.851Z</time></trkpt><trkpt lat="43.7759117" lon="11.23602"><ele>45.66666666666667</ele><time>2026-03-28T16:10:05.851Z</time></trkpt><trkpt lat="43.77587" lon="11.2361333"><ele>46.0</ele><time>2026-03-28T16:10:08.851Z</time></trkpt><trkpt lat="43.7758517" lon="11.2362417"><ele>46.0</ele><time>2026-03-28T16:10:11.851Z</time></trkpt><trkpt lat="43.7758433" lon="11.23633"><ele>46.0</ele><time>2026-03-28T16:10:13.85Z</time></trkpt><trkpt lat="43.7758283" lon="11.2364483"><ele>46.0</ele><time>2026-03-28T16:10:15.851Z</time></trkpt><trkpt lat="43.7757917" lon="11.2365817"><ele>46.0</ele><time>2026-03-28T16:10:17.851Z</time></trkpt><trkpt lat="43.7757483" lon="11.2367"><ele>46.0</ele><time>2026-03-28T16:10:19.851Z</time></trkpt><trkpt lat="43.7756867" lon="11.2367767"><ele>46.0</ele><time>2026-03-28T16:10:21.851Z</time></trkpt><trkpt lat="43.7756117" lon="11.2368117"><ele>46.16666666666667</ele><time>2026-03-28T16:10:24.851Z</time></trkpt><trkpt lat="43.7755417" lon="11.2367983"><ele>46.333333333333336</ele><time>2026-03-28T16:10:27.851Z</time></trkpt><trkpt lat="43.77546" lon="11.2367683"><ele>46.5</ele><time>2026-03-28T16:10:30.851Z</time></trkpt><trkpt lat="43.7753833" lon="11.2367383"><ele>46.666666666666664</ele><time>2026-03-28T16:10:33.851Z</time></trkpt><trkpt lat="43.7752983" lon="11.2367167"><ele>46.83333333333333</ele><time>2026-03-28T16:10:36.851Z</time></trkpt><trkpt lat="43.7752067" lon="11.2366667"><ele>47.0</ele><time>2026-03-28T16:10:39.851Z</time></trkpt><trkpt lat="43.7751433" lon="11.236625"><ele>47.166666666666664</ele><time>2026-03-28T16:10:41.851Z</time></trkpt><trkpt lat="43.7750817" lon="11.2365733"><ele>47.33333333333333</ele><time>2026-03-28T16:10:43.851Z</time></trkpt><trkpt lat="43.7750033" lon="11.23659"><ele>47.5</ele><time>2026-03-28T16:10:46.851Z</time></trkpt><trkpt lat="43.77494" lon="11.2366483"><ele>47.666666666666664</ele><time>2026-03-28T16:10:49.851Z</time></trkpt><trkpt lat="43.7749333" lon="11.2367533"><ele>47.833333333333336</ele><time>2026-03-28T16:10:51.85Z</time></trkpt><trkpt lat="43.774915" lon="11.236855"><ele>48.0</ele><time>2026-03-28T16:10:53.851Z</time></trkpt><trkpt lat="43.7748883" lon="11.236965"><ele>48.0</ele><time>2026-03-28T16:10:55.851Z</time></trkpt><trkpt lat="43.7748633" lon="11.2370683"><ele>48.0</ele><time>2026-03-28T16:10:57.851Z</time></trkpt><trkpt lat="43.7748317" lon="11.2371783"><ele>48.0</ele><time>2026-03-28T16:10:59.851Z</time></trkpt><trkpt lat="43.7747983" lon="11.2372817"><ele>48.0</ele><time>2026-03-28T16:11:01.851Z</time></trkpt><trkpt lat="43.774755" lon="11.237395"><ele>48.0</ele><time>2026-03-28T16:11:03.851Z</time></trkpt><trkpt lat="43.7747133" lon="11.237505"><ele>48.0</ele><time>2026-03-28T16:11:05.851Z</time></trkpt><trkpt lat="43.7746833" lon="11.237615"><ele>48.599999999999994</ele><time>2026-03-28T16:11:07.851Z</time></trkpt><trkpt lat="43.7746517" lon="11.23774"><ele>49.199999999999996</ele><time>2026-03-28T16:11:09.851Z</time></trkpt><trkpt lat="43.7746267" lon="11.2378633"><ele>49.8</ele><time>2026-03-28T16:11:11.851Z</time></trkpt><trkpt lat="43.7746017" lon="11.2380017"><ele>50.4</ele><time>2026-03-28T16:11:13.851Z</time></trkpt><trkpt lat="43.77457" lon="11.2381167"><ele>51.0</ele><time>2026-03-28T16:11:15.851Z</time></trkpt><trkpt lat="43.7745267" lon="11.23824"><ele>51.199999999999996</ele><time>2026-03-28T16:11:17.851Z</time></trkpt><trkpt lat="43.7744767" lon="11.2383617"><ele>51.4</ele><time>2026-03-28T16:11:19.851Z</time></trkpt><trkpt lat="43.7744267" lon="11.238465"><ele>51.6</ele><time>2026-03-28T16:11:21.851Z</time></trkpt><trkpt lat="43.7743833" lon="11.238575"><ele>51.8</ele><time>2026-03-28T16:11:23.851Z</time></trkpt><trkpt lat="43.774345" lon="11.2386883"><ele>52.0</ele><time>2026-03-28T16:11:25.851Z</time></trkpt><trkpt lat="43.77431" lon="11.2388083"><ele>51.666666666666664</ele><time>2026-03-28T16:11:27.851Z</time></trkpt><trkpt lat="43.7742817" lon="11.2389183"><ele>51.33333333333333</ele><time>2026-03-28T16:11:29.851Z</time></trkpt><trkpt lat="43.774245" lon="11.2390383"><ele>51.0</ele><time>2026-03-28T16:11:31.851Z</time></trkpt><trkpt lat="43.7742017" lon="11.2391533"><ele>50.66666666666667</ele><time>2026-03-28T16:11:33.851Z</time></trkpt><trkpt lat="43.7741633" lon="11.2392583"><ele>50.333333333333336</ele><time>2026-03-28T16:11:35.851Z</time></trkpt><trkpt lat="43.7741133" lon="11.2393367"><ele>50.0</ele><time>2026-03-28T16:11:37.851Z</time></trkpt><trkpt lat="43.7740567" lon="11.23943"><ele>50.00000000000001</ele><time>2026-03-28T16:11:39.851Z</time></trkpt><trkpt lat="43.7740167" lon="11.23955"><ele>50.0</ele><time>2026-03-28T16:11:42.851Z</time></trkpt><trkpt lat="43.7739983" lon="11.239655"><ele>50.0</ele><time>2026-03-28T16:11:44.851Z</time></trkpt><trkpt lat="43.7739817" lon="11.2397483"><ele>50.0</ele><time>2026-03-28T16:11:46.851Z</time></trkpt><trkpt lat="43.77396" lon="11.239855"><ele>50.00000000000001</ele><time>2026-03-28T16:11:48.851Z</time></trkpt><trkpt lat="43.7739267" lon="11.23998"><ele>50.0</ele><time>2026-03-28T16:11:50.851Z</time></trkpt><trkpt lat="43.7739017" lon="11.240085"><ele>50.2</ele><time>2026-03-28T16:11:52.851Z</time></trkpt><trkpt lat="43.7738667" lon="11.2402033"><ele>50.4</ele><time>2026-03-28T16:11:54.851Z</time></trkpt><trkpt lat="43.7738333" lon="11.24032"><ele>50.599999999999994</ele><time>2026-03-28T16:11:56.851Z</time></trkpt><trkpt lat="43.77379" lon="11.240445"><ele>50.8</ele><time>2026-03-28T16:11:58.851Z</time></trkpt><trkpt lat="43.7737433" lon="11.240555"><ele>51.0</ele><time>2026-03-28T16:12:00.851Z</time></trkpt><trkpt lat="43.7736983" lon="11.240665"><ele>51.0</ele><time>2026-03-28T16:12:02.851Z</time></trkpt><trkpt lat="43.7736433" lon="11.2407733"><ele>51.0</ele><time>2026-03-28T16:12:04.851Z</time></trkpt><trkpt lat="43.773605" lon="11.240855"><ele>51.0</ele><time>2026-03-28T16:12:06.851Z</time></trkpt><trkpt lat="43.773575" lon="11.2409367"><ele>51.0</ele><time>2026-03-28T16:12:08.851Z</time></trkpt><trkpt lat="43.77354" lon="11.2410217"><ele>51.0</ele><time>2026-03-28T16:12:10.851Z</time></trkpt><trkpt lat="43.7735083" lon="11.2411"><ele>51.0</ele><time>2026-03-28T16:12:14.851Z</time></trkpt><trkpt lat="43.77349" lon="11.241185"><ele>51.0</ele><time>2026-03-28T16:12:17.851Z</time></trkpt><trkpt lat="43.773465" lon="11.241295"><ele>49.8</ele><time>2026-03-28T16:12:20.851Z</time></trkpt><trkpt lat="43.7734333" lon="11.241435"><ele>48.599999999999994</ele><time>2026-03-28T16:12:24.851Z</time></trkpt><trkpt lat="43.7734133" lon="11.2415267"><ele>47.4</ele><time>2026-03-28T16:12:27.851Z</time></trkpt><trkpt lat="43.7733767" lon="11.2416667"><ele>46.2</ele><time>2026-03-28T16:12:30.851Z</time></trkpt><trkpt lat="43.7733433" lon="11.2418033"><ele>45.0</ele><time>2026-03-28T16:12:33.851Z</time></trkpt><trkpt lat="43.77332" lon="11.2418933"><ele>44.8</ele><time>2026-03-28T16:12:35.851Z</time></trkpt><trkpt lat="43.7732983" lon="11.24198"><ele>44.6</ele><time>2026-03-28T16:12:37.851Z</time></trkpt><trkpt lat="43.77324" lon="11.242065"><ele>44.400000000000006</ele><time>2026-03-28T16:12:39.851Z</time></trkpt><trkpt lat="43.773205" lon="11.2421633"><ele>44.2</ele><time>2026-03-28T16:12:41.851Z</time></trkpt><trkpt lat="43.7731567" lon="11.2422867"><ele>44.0</ele><time>2026-03-28T16:12:43.851Z</time></trkpt><trkpt lat="43.77308" lon="11.2424467"><ele>45.166666666666664</ele><time>2026-03-28T16:12:46.851Z</time></trkpt><trkpt lat="43.773045" lon="11.2425383"><ele>46.33333333333333</ele><time>2026-03-28T16:12:48.851Z</time></trkpt><trkpt lat="43.7729983" lon="11.2426883"><ele>47.5</ele><time>2026-03-28T16:12:51.851Z</time></trkpt><trkpt lat="43.7729617" lon="11.2427817"><ele>48.666666666666664</ele><time>2026-03-28T16:12:53.851Z</time></trkpt><trkpt lat="43.7729167" lon="11.2428817"><ele>49.833333333333336</ele><time>2026-03-28T16:12:55.85Z</time></trkpt><trkpt lat="43.77287" lon="11.2429817"><ele>51.0</ele><time>2026-03-28T16:12:57.851Z</time></trkpt><trkpt lat="43.7728233" lon="11.2430817"><ele>51.5</ele><time>2026-03-28T16:12:59.851Z</time></trkpt><trkpt lat="43.7727833" lon="11.243175"><ele>52.0</ele><time>2026-03-28T16:13:01.851Z</time></trkpt><trkpt lat="43.772755" lon="11.2432733"><ele>52.5</ele><time>2026-03-28T16:13:03.851Z</time></trkpt><trkpt lat="43.772705" lon="11.2433533"><ele>53.0</ele><time>2026-03-28T16:13:05.851Z</time></trkpt><trkpt lat="43.7726567" lon="11.2434483"><ele>53.5</ele><time>2026-03-28T16:13:08.851Z</time></trkpt><trkpt lat="43.7726133" lon="11.243525"><ele>54.0</ele><time>2026-03-28T16:13:11.851Z</time></trkpt><trkpt lat="43.77257" lon="11.2436"><ele>54.166666666666664</ele><time>2026-03-28T16:13:14.851Z</time></trkpt><trkpt lat="43.7725267" lon="11.2436983"><ele>54.33333333333333</ele><time>2026-03-28T16:13:16.851Z</time></trkpt><trkpt lat="43.7725017" lon="11.2438117"><ele>54.5</ele><time>2026-03-28T16:13:18.851Z</time></trkpt><trkpt lat="43.7724667" lon="11.2439267"><ele>54.666666666666664</ele><time>2026-03-28T16:13:20.851Z</time></trkpt><trkpt lat="43.77243" lon="11.244045"><ele>54.83333333333333</ele><time>2026-03-28T16:13:22.851Z</time></trkpt><trkpt lat="43.7723867" lon="11.244155"><ele>55.0</ele><time>2026-03-28T16:13:24.851Z</time></trkpt><trkpt lat="43.7723433" lon="11.24426"><ele>55.0</ele><time>2026-03-28T16:13:26.851Z</time></trkpt><trkpt lat="43.7723" lon="11.2443733"><ele>55.0</ele><time>2026-03-28T16:13:28.851Z</time></trkpt><trkpt lat="43.7722317" lon="11.2445533"><ele>55.0</ele><time>2026-03-28T16:13:31.851Z</time></trkpt><trkpt lat="43.7721817" lon="11.24466"><ele>55.0</ele><time>2026-03-28T16:13:33.851Z</time></trkpt><trkpt lat="43.772135" lon="11.2447667"><ele>55.0</ele><time>2026-03-28T16:13:35.851Z</time></trkpt><trkpt lat="43.772095" lon="11.2448617"><ele>54.99999999999999</ele><time>2026-03-28T16:13:37.851Z</time></trkpt><trkpt lat="43.7720517" lon="11.2449583"><ele>55.0</ele><time>2026-03-28T16:13:39.851Z</time></trkpt><trkpt lat="43.7720017" lon="11.2450433"><ele>55.0</ele><time>2026-03-28T16:13:41.85Z</time></trkpt><trkpt lat="43.7719583" lon="11.24515"><ele>55.0</ele><time>2026-03-28T16:13:44.851Z</time></trkpt><trkpt lat="43.7719267" lon="11.2452267"><ele>54.99999999999999</ele><time>2026-03-28T16:13:46.851Z</time></trkpt><trkpt lat="43.7718933" lon="11.2453083"><ele>55.0</ele><time>2026-03-28T16:13:48.851Z</time></trkpt><trkpt lat="43.7718567" lon="11.2454017"><ele>54.99999999999999</ele><time>2026-03-28T16:13:50.851Z</time></trkpt><trkpt lat="43.7718217" lon="11.24549"><ele>55.0</ele><time>2026-03-28T16:13:52.851Z</time></trkpt><trkpt lat="43.7717733" lon="11.2455817"><ele>55.0</ele><time>2026-03-28T16:13:54.851Z</time></trkpt><trkpt lat="43.7717333" lon="11.2456683"><ele>55.0</ele><time>2026-03-28T16:13:56.851Z</time></trkpt><trkpt lat="43.7717017" lon="11.245765"><ele>54.99999999999999</ele><time>2026-03-28T16:13:58.851Z</time></trkpt><trkpt lat="43.7716717" lon="11.2458667"><ele>55.0</ele><time>2026-03-28T16:14:00.851Z</time></trkpt><trkpt lat="43.7716033" lon="11.2460233"><ele>55.33333333333333</ele><time>2026-03-28T16:14:03.851Z</time></trkpt><trkpt lat="43.7715533" lon="11.2461267"><ele>55.666666666666664</ele><time>2026-03-28T16:14:05.851Z</time></trkpt><trkpt lat="43.7715133" lon="11.246225"><ele>56.0</ele><time>2026-03-28T16:14:07.851Z</time></trkpt><trkpt lat="43.7714833" lon="11.24631"><ele>56.33333333333333</ele><time>2026-03-28T16:14:09.85Z</time></trkpt><trkpt lat="43.7714383" lon="11.2464117"><ele>56.666666666666664</ele><time>2026-03-28T16:14:11.849Z</time></trkpt><trkpt lat="43.7713883" lon="11.2465217"><ele>57.0</ele><time>2026-03-28T16:14:13.85Z</time></trkpt><trkpt lat="43.7713433" lon="11.2466317"><ele>57.0</ele><time>2026-03-28T16:14:15.85Z</time></trkpt><trkpt lat="43.7712967" lon="11.2467417"><ele>57.0</ele><time>2026-03-28T16:14:17.85Z</time></trkpt><trkpt lat="43.7712383" lon="11.2468483"><ele>57.0</ele><time>2026-03-28T16:14:19.85Z</time></trkpt><trkpt lat="43.7711833" lon="11.24696"><ele>57.0</ele><time>2026-03-28T16:14:21.85Z</time></trkpt><trkpt lat="43.7711283" lon="11.2470667"><ele>57.0</ele><time>2026-03-28T16:14:23.85Z</time></trkpt><trkpt lat="43.77109" lon="11.2471667"><ele>57.0</ele><time>2026-03-28T16:14:25.85Z</time></trkpt><trkpt lat="43.7710467" lon="11.247255"><ele>56.99999999999999</ele><time>2026-03-28T16:14:27.85Z</time></trkpt><trkpt lat="43.7710133" lon="11.2473433"><ele>57.0</ele><time>2026-03-28T16:14:29.85Z</time></trkpt><trkpt lat="43.77098" lon="11.24743"><ele>57.0</ele><time>2026-03-28T16:14:31.85Z</time></trkpt><trkpt lat="43.7709483" lon="11.2475283"><ele>56.99999999999999</ele><time>2026-03-28T16:14:33.85Z</time></trkpt><trkpt lat="43.7709267" lon="11.2476217"><ele>57.0</ele><time>2026-03-28T16:14:36.85Z</time></trkpt><trkpt lat="43.7709267" lon="11.2477317"><ele>57.0</ele><time>2026-03-28T16:14:40.85Z</time></trkpt><trkpt lat="43.7709133" lon="11.24786"><ele>56.5</ele><time>2026-03-28T16:14:43.85Z</time></trkpt><trkpt lat="43.77093" lon="11.2479683"><ele>56.0</ele><time>2026-03-28T16:14:46.85Z</time></trkpt><trkpt lat="43.7709417" lon="11.2480733"><ele>55.5</ele><time>2026-03-28T16:14:48.85Z</time></trkpt><trkpt lat="43.7709117" lon="11.248215"><ele>55.0</ele><time>2026-03-28T16:14:51.849Z</time></trkpt><trkpt lat="43.7708567" lon="11.24832"><ele>54.5</ele><time>2026-03-28T16:14:53.85Z</time></trkpt><trkpt lat="43.7708033" lon="11.24842"><ele>54.0</ele><time>2026-03-28T16:14:55.85Z</time></trkpt><trkpt lat="43.77078" lon="11.2485167"><ele>54.0</ele><time>2026-03-28T16:14:58.85Z</time></trkpt><trkpt lat="43.7708867" lon="11.2485883"><ele>54.00000000000001</ele><time>2026-03-28T16:15:00.85Z</time></trkpt><trkpt lat="43.7709517" lon="11.2486033"><ele>54.00000000000001</ele><time>2026-03-28T16:15:01.849Z</time></trkpt><trkpt lat="43.7709483" lon="11.2487217"><ele>54.0</ele><time>2026-03-28T16:15:02.85Z</time></trkpt><trkpt lat="43.77092" lon="11.2488167"><ele>54.0</ele><time>2026-03-28T16:15:07.85Z</time></trkpt><trkpt lat="43.7709917" lon="11.2489383"><ele>54.800000000000004</ele><time>2026-03-28T16:15:12.85Z</time></trkpt><trkpt lat="43.7711383" lon="11.248975"><ele>55.60000000000001</ele><time>2026-03-28T16:15:15.85Z</time></trkpt><trkpt lat="43.7711717" lon="11.2490767"><ele>56.4</ele><time>2026-03-28T16:15:17.85Z</time></trkpt><trkpt lat="43.7712067" lon="11.2491533"><ele>57.2</ele><time>2026-03-28T16:15:20.85Z</time></trkpt><trkpt lat="43.771255" lon="11.2492233"><ele>58.0</ele><time>2026-03-28T16:15:22.85Z</time></trkpt><trkpt lat="43.7713133" lon="11.2493883"><ele>58.0</ele><time>2026-03-28T16:15:24.85Z</time></trkpt><trkpt lat="43.77134" lon="11.2494933"><ele>58.0</ele><time>2026-03-28T16:15:25.85Z</time></trkpt><trkpt lat="43.771395" lon="11.24956"><ele>58.0</ele><time>2026-03-28T16:15:27.85Z</time></trkpt><trkpt lat="43.7713633" lon="11.2497433"><ele>58.0</ele><time>2026-03-28T16:15:29.85Z</time></trkpt><trkpt lat="43.7713417" lon="11.24985"><ele>58.0</ele><time>2026-03-28T16:15:30.85Z</time></trkpt><trkpt lat="43.771385" lon="11.249965"><ele>57.8</ele><time>2026-03-28T16:15:33.85Z</time></trkpt><trkpt lat="43.771375" lon="11.2501133"><ele>57.599999999999994</ele><time>2026-03-28T16:15:35.85Z</time></trkpt><trkpt lat="43.7713917" lon="11.2502317"><ele>57.400000000000006</ele><time>2026-03-28T16:15:40.85Z</time></trkpt><trkpt lat="43.7714" lon="11.2503333"><ele>57.2</ele><time>2026-03-28T16:15:42.85Z</time></trkpt><trkpt lat="43.7713567" lon="11.2505"><ele>57.0</ele><time>2026-03-28T16:15:44.85Z</time></trkpt><trkpt lat="43.7713267" lon="11.2505917"><ele>58.2</ele><time>2026-03-28T16:15:45.85Z</time></trkpt><trkpt lat="43.77132" lon="11.2507133"><ele>59.400000000000006</ele><time>2026-03-28T16:15:47.85Z</time></trkpt><trkpt lat="43.771335" lon="11.2508083"><ele>60.599999999999994</ele><time>2026-03-28T16:15:50.85Z</time></trkpt><trkpt lat="43.7714" lon="11.250855"><ele>61.8</ele><time>2026-03-28T16:15:53.85Z</time></trkpt><trkpt lat="43.7715367" lon="11.250975"><ele>63.0</ele><time>2026-03-28T16:15:58.85Z</time></trkpt><trkpt lat="43.7715867" lon="11.251045"><ele>63.0</ele><time>2026-03-28T16:16:00.85Z</time></trkpt><trkpt lat="43.7715417" lon="11.2511083"><ele>63.0</ele><time>2026-03-28T16:16:02.85Z</time></trkpt><trkpt lat="43.7714917" lon="11.2512317"><ele>63.0</ele><time>2026-03-28T16:16:04.85Z</time></trkpt><trkpt lat="43.77151" lon="11.2513417"><ele>63.0</ele><time>2026-03-28T16:16:07.85Z</time></trkpt><trkpt lat="43.77154" lon="11.25144"><ele>63.0</ele><time>2026-03-28T16:16:11.85Z</time></trkpt><trkpt lat="43.7715467" lon="11.2515283"><ele>63.0</ele><time>2026-03-28T16:16:13.85Z</time></trkpt><trkpt lat="43.77157" lon="11.2516117"><ele>63.4</ele><time>2026-03-28T16:16:16.85Z</time></trkpt><trkpt lat="43.77162" lon="11.2517017"><ele>63.8</ele><time>2026-03-28T16:16:19.849Z</time></trkpt><trkpt lat="43.7716367" lon="11.2518233"><ele>64.2</ele><time>2026-03-28T16:16:21.85Z</time></trkpt><trkpt lat="43.7716983" lon="11.2519183"><ele>64.6</ele><time>2026-03-28T16:16:24.849Z</time></trkpt><trkpt lat="43.7717833" lon="11.251985"><ele>65.0</ele><time>2026-03-28T16:16:26.849Z</time></trkpt><trkpt lat="43.7715967" lon="11.2520267"><ele>65.00000000000001</ele><time>2026-03-28T16:16:28.849Z</time></trkpt><trkpt lat="43.7715433" lon="11.252095"><ele>65.0</ele><time>2026-03-28T16:16:30.85Z</time></trkpt><trkpt lat="43.7715383" lon="11.252185"><ele>65.0</ele><time>2026-03-28T16:16:32.85Z</time></trkpt><trkpt lat="43.7715633" lon="11.2522917"><ele>65.0</ele><time>2026-03-28T16:16:35.849Z</time></trkpt><trkpt lat="43.7715967" lon="11.2523817"><ele>65.0</ele><time>2026-03-28T16:16:38.85Z</time></trkpt><trkpt lat="43.7716267" lon="11.2524683"><ele>65.00000000000001</ele><time>2026-03-28T16:16:41.849Z</time></trkpt><trkpt lat="43.7716517" lon="11.252575"><ele>65.0</ele><time>2026-03-28T16:16:46.85Z</time></trkpt><trkpt lat="43.771615" lon="11.2526817"><ele>64.83333333333334</ele><time>2026-03-28T16:16:47.85Z</time></trkpt><trkpt lat="43.771695" lon="11.25267"><ele>64.66666666666667</ele><time>2026-03-28T16:16:52.85Z</time></trkpt><trkpt lat="43.7717783" lon="11.25264"><ele>64.5</ele><time>2026-03-28T16:16:58.85Z</time></trkpt><trkpt lat="43.7718483" lon="11.252655"><ele>64.33333333333333</ele><time>2026-03-28T16:17:01.85Z</time></trkpt><trkpt lat="43.771935" lon="11.2526683"><ele>64.16666666666666</ele><time>2026-03-28T16:17:04.85Z</time></trkpt><trkpt lat="43.7720067" lon="11.252695"><ele>64.0</ele><time>2026-03-28T16:17:06.85Z</time></trkpt><trkpt lat="43.772075" lon="11.252735"><ele>63.83333333333333</ele><time>2026-03-28T16:17:08.85Z</time></trkpt><trkpt lat="43.7721633" lon="11.2527467"><ele>63.666666666666664</ele><time>2026-03-28T16:17:11.85Z</time></trkpt><trkpt lat="43.77224" lon="11.2527483"><ele>63.5</ele><time>2026-03-28T16:17:13.85Z</time></trkpt><trkpt lat="43.7723233" lon="11.252765"><ele>63.33333333333333</ele><time>2026-03-28T16:17:16.85Z</time></trkpt><trkpt lat="43.7723967" lon="11.2527867"><ele>63.166666666666664</ele><time>2026-03-28T16:17:19.85Z</time></trkpt><trkpt lat="43.772465" lon="11.2527617"><ele>63.0</ele><time>2026-03-28T16:17:21.85Z</time></trkpt><trkpt lat="43.7725433" lon="11.2527667"><ele>63.0</ele><time>2026-03-28T16:17:25.85Z</time></trkpt><trkpt lat="43.7726067" lon="11.25282"><ele>63.0</ele><time>2026-03-28T16:17:27.85Z</time></trkpt><trkpt lat="43.7726367" lon="11.2529067"><ele>63.0</ele><time>2026-03-28T16:17:29.85Z</time></trkpt><trkpt lat="43.772685" lon="11.25297"><ele>63.0</ele><time>2026-03-28T16:17:31.85Z</time></trkpt><trkpt lat="43.7727417" lon="11.2530683"><ele>63.0</ele><time>2026-03-28T16:17:34.85Z</time></trkpt><trkpt lat="43.772765" lon="11.2531667"><ele>63.0</ele><time>2026-03-28T16:17:37.85Z</time></trkpt><trkpt lat="43.7727933" lon="11.2532567"><ele>63.0</ele><time>2026-03-28T16:17:40.85Z</time></trkpt><trkpt lat="43.772785" lon="11.2533433"><ele>62.666666666666664</ele><time>2026-03-28T16:17:42.85Z</time></trkpt><trkpt lat="43.7727767" lon="11.2534333"><ele>62.33333333333333</ele><time>2026-03-28T16:17:45.85Z</time></trkpt><trkpt lat="43.772855" lon="11.2534933"><ele>62.0</ele><time>2026-03-28T16:17:48.85Z</time></trkpt><trkpt lat="43.772905" lon="11.25358"><ele>61.666666666666664</ele><time>2026-03-28T16:17:51.85Z</time></trkpt><trkpt lat="43.7729333" lon="11.2536767"><ele>61.33333333333333</ele><time>2026-03-28T16:17:54.85Z</time></trkpt><trkpt lat="43.7729383" lon="11.253795"><ele>61.0</ele><time>2026-03-28T16:17:56.85Z</time></trkpt><trkpt lat="43.7729267" lon="11.25397"><ele>60.0</ele><time>2026-03-28T16:17:58.85Z</time></trkpt><trkpt lat="43.7728117" lon="11.2542783"><ele>59.0</ele><time>2026-03-28T16:18:00.85Z</time></trkpt><trkpt lat="43.7728383" lon="11.2543817"><ele>58.0</ele><time>2026-03-28T16:18:03.85Z</time></trkpt><trkpt lat="43.7728917" lon="11.254445"><ele>57.0</ele><time>2026-03-28T16:18:07.85Z</time></trkpt><trkpt lat="43.7729" lon="11.2545367"><ele>57.0</ele><time>2026-03-28T16:18:10.85Z</time></trkpt><trkpt lat="43.7729" lon="11.2546283"><ele>56.99999999999999</ele><time>2026-03-28T16:18:13.85Z</time></trkpt><trkpt lat="43.7728483" lon="11.2547217"><ele>57.0</ele><time>2026-03-28T16:18:16.85Z</time></trkpt><trkpt lat="43.7728117" lon="11.2548167"><ele>57.0</ele><time>2026-03-28T16:18:19.849Z</time></trkpt><trkpt lat="43.7727733" lon="11.2548967"><ele>56.99999999999999</ele><time>2026-03-28T16:18:22.85Z</time></trkpt><trkpt lat="43.77276" lon="11.25499"><ele>57.0</ele><time>2026-03-28T16:18:27.849Z</time></trkpt><trkpt lat="43.7727683" lon="11.2550767"><ele>57.0</ele><time>2026-03-28T16:18:31.849Z</time></trkpt><trkpt lat="43.7727983" lon="11.2551633"><ele>56.166666666666664</ele><time>2026-03-28T16:18:38.849Z</time></trkpt><trkpt lat="43.77286" lon="11.2552067"><ele>55.33333333333333</ele><time>2026-03-28T16:18:44.849Z</time></trkpt><trkpt lat="43.77294" lon="11.25528"><ele>54.5</ele><time>2026-03-28T16:18:49.849Z</time></trkpt><trkpt lat="43.7730067" lon="11.255345"><ele>53.666666666666664</ele><time>2026-03-28T16:18:54.849Z</time></trkpt><trkpt lat="43.7730767" lon="11.255385"><ele>52.83333333333333</ele><time>2026-03-28T16:19:00.849Z</time></trkpt><trkpt lat="43.77314" lon="11.255435"><ele>52.0</ele><time>2026-03-28T16:19:04.849Z</time></trkpt><trkpt lat="43.7732083" lon="11.2554517"><ele>51.99999999999999</ele><time>2026-03-28T16:19:08.849Z</time></trkpt><trkpt lat="43.7732817" lon="11.255505"><ele>52.0</ele><time>2026-03-28T16:19:11.849Z</time></trkpt><trkpt lat="43.773315" lon="11.2555933"><ele>52.0</ele><time>2026-03-28T16:19:14.849Z</time></trkpt><trkpt lat="43.773315" lon="11.25569"><ele>52.0</ele><time>2026-03-28T16:19:17.849Z</time></trkpt><trkpt lat="43.7733433" lon="11.2557867"><ele>51.99999999999999</ele><time>2026-03-28T16:19:20.849Z</time></trkpt><trkpt lat="43.7733733" lon="11.255895"><ele>52.0</ele><time>2026-03-28T16:19:24.849Z</time></trkpt><trkpt lat="43.773425" lon="11.2559817"><ele>52.166666666666664</ele><time>2026-03-28T16:19:27.849Z</time></trkpt><trkpt lat="43.773445" lon="11.25608"><ele>52.33333333333333</ele><time>2026-03-28T16:19:31.849Z</time></trkpt><trkpt lat="43.77346" lon="11.256195"><ele>52.5</ele><time>2026-03-28T16:19:35.849Z</time></trkpt><trkpt lat="43.7734517" lon="11.2563"><ele>52.66666666666667</ele><time>2026-03-28T16:19:38.849Z</time></trkpt><trkpt lat="43.7734283" lon="11.256455"><ele>52.833333333333336</ele><time>2026-03-28T16:19:42.849Z</time></trkpt><trkpt lat="43.7734383" lon="11.2565433"><ele>53.0</ele><time>2026-03-28T16:19:46.849Z</time></trkpt><trkpt lat="43.773495" lon="11.2566617"><ele>54.16666666666667</ele><time>2026-03-28T16:19:49.849Z</time></trkpt><trkpt lat="43.773525" lon="11.2567533"><ele>55.333333333333336</ele><time>2026-03-28T16:19:51.849Z</time></trkpt><trkpt lat="43.7736033" lon="11.2568583"><ele>56.5</ele><time>2026-03-28T16:19:53.849Z</time></trkpt><trkpt lat="43.7736333" lon="11.2569517"><ele>57.66666666666667</ele><time>2026-03-28T16:19:55.848Z</time></trkpt><trkpt lat="43.7736417" lon="11.2570667"><ele>58.833333333333336</ele><time>2026-03-28T16:19:57.849Z</time></trkpt><trkpt lat="43.7736417" lon="11.2571567"><ele>60.0</ele><time>2026-03-28T16:19:59.849Z</time></trkpt><trkpt lat="43.7736583" lon="11.2572733"><ele>60.333333333333336</ele><time>2026-03-28T16:20:03.849Z</time></trkpt><trkpt lat="43.7736817" lon="11.25736"><ele>60.66666666666667</ele><time>2026-03-28T16:20:06.849Z</time></trkpt><trkpt lat="43.77368" lon="11.2574567"><ele>61.0</ele><time>2026-03-28T16:20:08.849Z</time></trkpt><trkpt lat="43.7737667" lon="11.2575683"><ele>61.333333333333336</ele><time>2026-03-28T16:20:16.848Z</time></trkpt><trkpt lat="43.7738083" lon="11.2576783"><ele>61.66666666666667</ele><time>2026-03-28T16:20:20.848Z</time></trkpt><trkpt lat="43.7738733" lon="11.257735"><ele>62.0</ele><time>2026-03-28T16:20:25.849Z</time></trkpt><trkpt lat="43.7738767" lon="11.2578683"><ele>62.00000000000001</ele><time>2026-03-28T16:20:27.849Z</time></trkpt><trkpt lat="43.7739333" lon="11.257915"><ele>62.0</ele><time>2026-03-28T16:20:28.849Z</time></trkpt><trkpt lat="43.7740217" lon="11.2579733"><ele>62.0</ele><time>2026-03-28T16:20:30.849Z</time></trkpt><trkpt lat="43.7740983" lon="11.2580217"><ele>62.0</ele><time>2026-03-28T16:20:33.849Z</time></trkpt><trkpt lat="43.7741833" lon="11.2580383"><ele>62.00000000000001</ele><time>2026-03-28T16:20:36.849Z</time></trkpt><trkpt lat="43.7742417" lon="11.2581167"><ele>62.0</ele><time>2026-03-28T16:20:39.849Z</time></trkpt><trkpt lat="43.7743117" lon="11.2581683"><ele>61.66666666666667</ele><time>2026-03-28T16:20:42.849Z</time></trkpt><trkpt lat="43.7743533" lon="11.2582433"><ele>61.333333333333336</ele><time>2026-03-28T16:20:44.849Z</time></trkpt><trkpt lat="43.774405" lon="11.2583467"><ele>61.0</ele><time>2026-03-28T16:20:47.849Z</time></trkpt><trkpt lat="43.7744633" lon="11.2584433"><ele>60.66666666666667</ele><time>2026-03-28T16:20:50.849Z</time></trkpt><trkpt lat="43.774545" lon="11.2585367"><ele>60.333333333333336</ele><time>2026-03-28T16:20:53.848Z</time></trkpt><trkpt lat="43.7746067" lon="11.2585883"><ele>60.0</ele><time>2026-03-28T16:20:55.849Z</time></trkpt><trkpt lat="43.7746333" lon="11.258675"><ele>60.0</ele><time>2026-03-28T16:20:57.849Z</time></trkpt><trkpt lat="43.7746867" lon="11.2587617"><ele>60.0</ele><time>2026-03-28T16:21:00.849Z</time></trkpt><trkpt lat="43.77473" lon="11.258825"><ele>60.0</ele><time>2026-03-28T16:21:03.849Z</time></trkpt><trkpt lat="43.7747883" lon="11.2588933"><ele>60.0</ele><time>2026-03-28T16:21:06.849Z</time></trkpt><trkpt lat="43.7748417" lon="11.2589483"><ele>60.0</ele><time>2026-03-28T16:21:08.849Z</time></trkpt><trkpt lat="43.7749033" lon="11.2590367"><ele>60.0</ele><time>2026-03-28T16:21:11.849Z</time></trkpt><trkpt lat="43.7749167" lon="11.2591517"><ele>60.0</ele><time>2026-03-28T16:21:15.849Z</time></trkpt><trkpt lat="43.774935" lon="11.25926"><ele>60.0</ele><time>2026-03-28T16:21:18.849Z</time></trkpt><trkpt lat="43.7749933" lon="11.25933"><ele>60.0</ele><time>2026-03-28T16:21:22.848Z</time></trkpt><trkpt lat="43.77507" lon="11.25939"><ele>60.0</ele><time>2026-03-28T16:21:25.849Z</time></trkpt><trkpt lat="43.7751333" lon="11.2594233"><ele>60.0</ele><time>2026-03-28T16:21:27.849Z</time></trkpt><trkpt lat="43.7752267" lon="11.2593917"><ele>60.0</ele><time>2026-03-28T16:21:28.849Z</time></trkpt><trkpt lat="43.7753217" lon="11.2594117"><ele>60.0</ele><time>2026-03-28T16:21:30.849Z</time></trkpt><trkpt lat="43.7753883" lon="11.259415"><ele>60.0</ele><time>2026-03-28T16:21:32.849Z</time></trkpt><trkpt lat="43.7754567" lon="11.259465"><ele>60.0</ele><time>2026-03-28T16:21:35.849Z</time></trkpt><trkpt lat="43.7754667" lon="11.2595533"><ele>60.0</ele><time>2026-03-28T16:21:38.849Z</time></trkpt><trkpt lat="43.7754817" lon="11.2596433"><ele>60.0</ele><time>2026-03-28T16:21:42.849Z</time></trkpt><trkpt lat="43.775575" lon="11.2596483"><ele>60.0</ele><time>2026-03-28T16:21:48.849Z</time></trkpt><trkpt lat="43.7757033" lon="11.2596933"><ele>60.166666666666664</ele><time>2026-03-28T16:21:54.849Z</time></trkpt><trkpt lat="43.7756717" lon="11.2597883"><ele>60.33333333333333</ele><time>2026-03-28T16:22:18.849Z</time></trkpt><trkpt lat="43.7756367" lon="11.2598617"><ele>60.5</ele><time>2026-03-28T16:22:20.849Z</time></trkpt><trkpt lat="43.7755917" lon="11.2599817"><ele>60.666666666666664</ele><time>2026-03-28T16:22:23.849Z</time></trkpt><trkpt lat="43.7755683" lon="11.2600883"><ele>60.83333333333333</ele><time>2026-03-28T16:22:28.848Z</time></trkpt><trkpt lat="43.7755533" lon="11.2601817"><ele>61.0</ele><time>2026-03-28T16:22:35.848Z</time></trkpt><trkpt lat="43.7754985" lon="11.2602306"><ele>60.99999999999999</ele><time>2026-03-28T16:23:07.848Z</time></trkpt><trkpt lat="43.7754383" lon="11.2602842"><ele>61.0</ele><time>2026-03-28T16:23:17.848Z</time></trkpt><trkpt lat="43.7754417" lon="11.2603817"><ele>60.99999999999999</ele><time>2026-03-28T16:23:22.848Z</time></trkpt><trkpt lat="43.775405" lon="11.260485"><ele>60.99999999999999</ele><time>2026-03-28T16:23:25.848Z</time></trkpt><trkpt lat="43.7753717" lon="11.26057"><ele>61.0</ele><time>2026-03-28T16:23:27.848Z</time></trkpt><trkpt lat="43.7753333" lon="11.260655"><ele>60.99999999999999</ele><time>2026-03-28T16:23:29.848Z</time></trkpt><trkpt lat="43.7752883" lon="11.26075"><ele>60.99999999999999</ele><time>2026-03-28T16:23:31.848Z</time></trkpt><trkpt lat="43.77525" lon="11.2608333"><ele>60.33333333333333</ele><time>2026-03-28T16:23:33.848Z</time></trkpt><trkpt lat="43.7752017" lon="11.260935"><ele>59.666666666666664</ele><time>2026-03-28T16:23:36.848Z</time></trkpt><trkpt lat="43.775155" lon="11.2610333"><ele>59.0</ele><time>2026-03-28T16:23:39.848Z</time></trkpt><trkpt lat="43.77512" lon="11.26111"><ele>58.33333333333333</ele><time>2026-03-28T16:23:41.848Z</time></trkpt><trkpt lat="43.7750733" lon="11.2612083"><ele>57.666666666666664</ele><time>2026-03-28T16:23:44.848Z</time></trkpt><trkpt lat="43.7750317" lon="11.261295"><ele>57.0</ele><time>2026-03-28T16:23:46.848Z</time></trkpt><trkpt lat="43.77499" lon="11.261385"><ele>56.5</ele><time>2026-03-28T16:23:48.848Z</time></trkpt><trkpt lat="43.774945" lon="11.2614817"><ele>56.0</ele><time>2026-03-28T16:23:50.848Z</time></trkpt><trkpt lat="43.7749033" lon="11.2615683"><ele>55.5</ele><time>2026-03-28T16:23:53.848Z</time></trkpt><trkpt lat="43.7748633" lon="11.2616517"><ele>55.0</ele><time>2026-03-28T16:23:56.848Z</time></trkpt><trkpt lat="43.7748233" lon="11.26174"><ele>54.5</ele><time>2026-03-28T16:23:58.848Z</time></trkpt><trkpt lat="43.7747717" lon="11.2618483"><ele>54.0</ele><time>2026-03-28T16:24:00.848Z</time></trkpt><trkpt lat="43.7747267" lon="11.2619433"><ele>54.0</ele><time>2026-03-28T16:24:02.848Z</time></trkpt><trkpt lat="43.77468" lon="11.262045"><ele>54.0</ele><time>2026-03-28T16:24:05.848Z</time></trkpt><trkpt lat="43.7746333" lon="11.2621417"><ele>54.0</ele><time>2026-03-28T16:24:08.848Z</time></trkpt><trkpt lat="43.774585" lon="11.262245"><ele>54.0</ele><time>2026-03-28T16:24:11.848Z</time></trkpt><trkpt lat="43.77453" lon="11.262355"><ele>54.0</ele><time>2026-03-28T16:24:14.848Z</time></trkpt><trkpt lat="43.77448" lon="11.26246"><ele>54.0</ele><time>2026-03-28T16:24:17.848Z</time></trkpt><trkpt lat="43.774455" lon="11.2625483"><ele>54.333333333333336</ele><time>2026-03-28T16:24:22.848Z</time></trkpt><trkpt lat="43.7744683" lon="11.2624433"><ele>54.66666666666667</ele><time>2026-03-28T16:24:33.848Z</time></trkpt><trkpt lat="43.7745183" lon="11.2625017"><ele>55.0</ele><time>2026-03-28T16:24:39.848Z</time></trkpt><trkpt lat="43.774585" lon="11.26252"><ele>55.333333333333336</ele><time>2026-03-28T16:24:46.848Z</time></trkpt><trkpt lat="43.7746517" lon="11.2624717"><ele>55.66666666666667</ele><time>2026-03-28T16:25:32.848Z</time></trkpt><trkpt lat="43.7745917" lon="11.262585"><ele>56.0</ele><time>2026-03-28T16:26:34.847Z</time></trkpt><trkpt lat="43.7745267" lon="11.2625967"><ele>56.0</ele><time>2026-03-28T16:26:53.847Z</time></trkpt><trkpt lat="43.774455" lon="11.262645"><ele>56.0</ele><time>2026-03-28T16:26:59.847Z</time></trkpt><trkpt lat="43.7745133" lon="11.262605"><ele>56.0</ele><time>2026-03-28T16:27:05.847Z</time></trkpt><trkpt lat="43.7745767" lon="11.2625417"><ele>56.0</ele><time>2026-03-28T16:27:10.847Z</time></trkpt><trkpt lat="43.77463" lon="11.26248"><ele>56.0</ele><time>2026-03-28T16:27:14.847Z</time></trkpt><trkpt lat="43.7746917" lon="11.2624167"><ele>56.0</ele><time>2026-03-28T16:27:39.847Z</time></trkpt></trkseg></trk></gpx>